Observation data for Fort Lancaster on 04/08/2021      Previous  Date  Next       Current Mesonet Observations  Soil Data  Daily Summary Page  Observations in Plain Language
KLA1 080500Z 24001KT 15/M06 A2989 RMK A01 T01451064  RH  023%=      5-min Rain = 0
KLA1 080501Z 23002KT 14/M06 A2989 RMK A01 T01421061  RH  024%=      5-min Rain = 0
KLA1 080502Z 25002KT 14/M06 A2989 RMK A01 T01391061  RH  024%=      5-min Rain = 0
KLA1 080503Z 25001KT 14/M06 A2989 RMK A01 T01381063  RH  024%=      5-min Rain = 0
KLA1 080504Z 23001KT 14/M07 A2989 RMK A01 T01351066  RH  024%=      5-min Rain = 0
KLA1 080505Z 22001KT 13/M07 A2989 RMK A01 T01311066  RH  025%=      5-min Rain = 0
KLA1 080506Z 20000KT 13/M07 A2989 RMK A01 T01281067  RH  025%=      5-min Rain = 0
KLA1 080507Z 19000KT 13/M07 A2989 RMK A01 T01261067  RH  025%=      5-min Rain = 0
KLA1 080508Z 19000KT 13/M07 A2989 RMK A01 T01251067  RH  026%=      5-min Rain = 0
KLA1 080509Z 00000KT 12/M07 A2989 RMK A01 T01231066  RH  026%=      5-min Rain = 0
KLA1 080510Z 00000KT 12/M06 A2989 RMK A01 T01221064  RH  027%=      5-min Rain = 0
KLA1 080511Z 00000KT 12/M07 A2989 RMK A01 T01211065  RH  027%=      5-min Rain = 0
KLA1 080512Z 00000KT 12/M07 A2989 RMK A01 T01201065  RH  027%=      5-min Rain = 0
KLA1 080513Z 00000KT 12/M06 A2989 RMK A01 T01191063  RH  027%=      5-min Rain = 0
KLA1 080514Z 06000KT 12/M06 A2989 RMK A01 T01191063  RH  028%=      5-min Rain = 0
KLA1 080515Z 00000KT 12/M06 A2989 RMK A01 T01191062  RH  028%=      5-min Rain = 0
KLA1 080516Z 05000KT 12/M06 A2989 RMK A01 T01181061  RH  028%=      5-min Rain = 0
KLA1 080517Z 05000KT 12/M06 A2989 RMK A01 T01171059  RH  029%=      5-min Rain = 0
KLA1 080518Z 07000KT 12/M06 A2989 RMK A01 T01161058  RH  029%=      5-min Rain = 0
KLA1 080519Z 00000KT 12/M06 A2989 RMK A01 T01151057  RH  030%=      5-min Rain = 0
KLA1 080520Z 08000KT 11/M06 A2989 RMK A01 T01141056  RH  030%=      5-min Rain = 0
KLA1 080521Z 08000KT 12/M06 A2989 RMK A01 T01161060  RH  029%=      5-min Rain = 0
KLA1 080522Z 07000KT 12/M06 A2989 RMK A01 T01221063  RH  027%=      5-min Rain = 0
KLA1 080523Z 07001KT 13/M06 A2989 RMK A01 T01281064  RH  026%=      5-min Rain = 0
KLA1 080524Z 08000KT 13/M06 A2989 RMK A01 T01301064  RH  025%=      5-min Rain = 0
KLA1 080525Z 00000KT 13/M06 A2989 RMK A01 T01321064  RH  025%=      5-min Rain = 0
KLA1 080526Z 08000KT 13/M06 A2989 RMK A01 T01331060  RH  026%=      5-min Rain = 0
KLA1 080527Z 00000KT 13/M06 A2989 RMK A01 T01301059  RH  026%=      5-min Rain = 0
KLA1 080528Z 00000KT 13/M06 A2989 RMK A01 T01271059  RH  027%=      5-min Rain = 0
KLA1 080529Z 11001KT 12/M06 A299 RMK A01 T01241061  RH  027%=      5-min Rain = 0
KLA1 080530Z 10001KT 12/M06 A299 RMK A01 T01221059  RH  028%=      5-min Rain = 0
KLA1 080531Z 09000KT 12/M06 A299 RMK A01 T01201059  RH  028%=      5-min Rain = 0
KLA1 080532Z 08001KT 12/M06 A299 RMK A01 T01191059  RH  028%=      5-min Rain = 0
KLA1 080533Z 07001KT 12/M06 A299 RMK A01 T01181058  RH  029%=      5-min Rain = 0
KLA1 080534Z 09001KT 12/M06 A299 RMK A01 T01171057  RH  029%=      5-min Rain = 0
KLA1 080535Z 11001KT 12/M06 A299 RMK A01 T01161057  RH  029%=      5-min Rain = 0
KLA1 080536Z 12002KT 12/M06 A299 RMK A01 T01161058  RH  029%=      5-min Rain = 0
KLA1 080537Z 12002KT 12/M06 A299 RMK A01 T01171058  RH  029%=      5-min Rain = 0
KLA1 080538Z 12002KT 12/M06 A299 RMK A01 T01181057  RH  029%=      5-min Rain = 0
KLA1 080539Z 12002KT 12/M06 A2989 RMK A01 T01201059  RH  028%=      5-min Rain = 0
KLA1 080540Z 12002KT 12/M06 A2989 RMK A01 T01221061  RH  027%=      5-min Rain = 0
KLA1 080541Z 13002KT 12/M06 A2989 RMK A01 T01231062  RH  027%=      5-min Rain = 0
KLA1 080542Z 13003KT 13/M07 A2989 RMK A01 T01251067  RH  025%=      5-min Rain = 0
KLA1 080543Z 13002KT 13/M07 A299 RMK A01 T01281070  RH  025%=      5-min Rain = 0
KLA1 080544Z 13002KT 13/M07 A299 RMK A01 T01311070  RH  024%=      5-min Rain = 0
KLA1 080545Z 12001KT 13/M07 A299 RMK A01 T01331072  RH  023%=      5-min Rain = 0
KLA1 080546Z 00000KT 13/M07 A299 RMK A01 T01341073  RH  023%=      5-min Rain = 0
KLA1 080547Z 26000KT 13/M06 A299 RMK A01 T01331063  RH  025%=      5-min Rain = 0
KLA1 080548Z 00000KT 13/M06 A299 RMK A01 T01291064  RH  025%=      5-min Rain = 0
KLA1 080549Z 00000KT 12/M07 A299 RMK A01 T01241065  RH  026%=      5-min Rain = 0
KLA1 080550Z 00000KT 12/M07 A299 RMK A01 T01211067  RH  026%=      5-min Rain = 0
KLA1 080551Z 00000KT 12/M07 A299 RMK A01 T01201066  RH  027%=      5-min Rain = 0
KLA1 080552Z 00000KT 12/M07 A299 RMK A01 T01191065  RH  027%=      5-min Rain = 0
KLA1 080553Z 00000KT 12/M07 A2989 RMK A01 T01171065  RH  028%=      5-min Rain = 0
KLA1 080554Z 00000KT 12/M06 A299 RMK A01 T01151061  RH  029%=      5-min Rain = 0
KLA1 080555Z 00000KT 11/M06 A2989 RMK A01 T01131060  RH  029%=      5-min Rain = 0
KLA1 080556Z 00000KT 11/M06 A2989 RMK A01 T01121060  RH  030%=      5-min Rain = 0
KLA1 080557Z 00000KT 11/M06 A2989 RMK A01 T01111059  RH  030%=      5-min Rain = 0
KLA1 080558Z 00000KT 11/M06 A2989 RMK A01 T01101058  RH  030%=      5-min Rain = 0
KLA1 080559Z 00000KT 11/M06 A2989 RMK A01 T01101056  RH  031%=      5-min Rain = 0
KLA1 080600Z 26001KT 11/M06 A299 RMK A01 T01101056  RH  031%=      5-min Rain = 0
KLA1 080601Z 26002KT 11/M06 A299 RMK A01 T01101060  RH  030%=      5-min Rain = 0
KLA1 080602Z 25003KT 11/M06 A299 RMK A01 T01111063  RH  029%=      5-min Rain = 0
KLA1 080603Z 24003KT 11/M07 A299 RMK A01 T01121066  RH  028%=      5-min Rain = 0
KLA1 080604Z 20002KT 11/M07 A299 RMK A01 T01141067  RH  028%=      5-min Rain = 0
KLA1 080605Z 19002KT 11/M07 A2989 RMK A01 T01141068  RH  027%=      5-min Rain = 0
KLA1 080606Z 16001KT 12/M07 A2989 RMK A01 T01151066  RH  027%=      5-min Rain = 0
KLA1 080607Z 15002KT 11/M06 A2989 RMK A01 T01131064  RH  028%=      5-min Rain = 0
KLA1 080608Z 14002KT 11/M06 A2989 RMK A01 T01091063  RH  029%=      5-min Rain = 0
KLA1 080609Z 13001KT 11/M06 A2989 RMK A01 T01081062  RH  030%=      5-min Rain = 0
KLA1 080610Z 11001KT 11/M06 A2989 RMK A01 T01071061  RH  030%=      5-min Rain = 0
KLA1 080611Z 00000KT 11/M06 A2989 RMK A01 T01071062  RH  030%=      5-min Rain = 0
KLA1 080612Z 25000KT 11/M07 A2989 RMK A01 T01091065  RH  029%=      5-min Rain = 0
KLA1 080613Z 25002KT 11/M07 A2989 RMK A01 T01121067  RH  028%=      5-min Rain = 0
KLA1 080614Z 26002KT 12/M07 A2989 RMK A01 T01151069  RH  027%=      5-min Rain = 0
KLA1 080615Z 26002KT 12/M07 A2989 RMK A01 T01171071  RH  026%=      5-min Rain = 0
KLA1 080616Z 27000KT 12/M07 A2989 RMK A01 T01191068  RH  026%=      5-min Rain = 0
KLA1 080617Z 00000KT 12/M07 A2989 RMK A01 T01191070  RH  026%=      5-min Rain = 0
KLA1 080618Z 00000KT 12/M07 A2989 RMK A01 T01201068  RH  026%=      5-min Rain = 0
KLA1 080619Z 04000KT 12/M07 A2989 RMK A01 T01181065  RH  027%=      5-min Rain = 0
KLA1 080620Z 03001KT 11/M06 A2989 RMK A01 T01131063  RH  029%=      5-min Rain = 0
KLA1 080621Z 03000KT 11/M06 A2989 RMK A01 T01101061  RH  030%=      5-min Rain = 0
KLA1 080622Z 04001KT 11/M06 A2989 RMK A01 T01081062  RH  030%=      5-min Rain = 0
KLA1 080623Z 05001KT 11/M06 A2989 RMK A01 T01101064  RH  029%=      5-min Rain = 0
KLA1 080624Z 05000KT 11/M06 A299 RMK A01 T01121062  RH  029%=      5-min Rain = 0
KLA1 080625Z 00000KT 11/M06 A299 RMK A01 T01121064  RH  029%=      5-min Rain = 0
KLA1 080626Z 00000KT 11/M06 A299 RMK A01 T01131062  RH  029%=      5-min Rain = 0
KLA1 080627Z 00000KT 11/M06 A299 RMK A01 T01131062  RH  029%=      5-min Rain = 0
KLA1 080628Z 00000KT 11/M06 A299 RMK A01 T01131063  RH  029%=      5-min Rain = 0
KLA1 080629Z 00000KT 11/M06 A2989 RMK A01 T01131064  RH  028%=      5-min Rain = 0
KLA1 080630Z 05001KT 11/M06 A2989 RMK A01 T01131062  RH  029%=      5-min Rain = 0
KLA1 080631Z 06002KT 11/M06 A2989 RMK A01 T01121059  RH  030%=      5-min Rain = 0
KLA1 080632Z 06002KT 11/M06 A2989 RMK A01 T01091060  RH  030%=      5-min Rain = 0
KLA1 080633Z 06003KT 11/M06 A2989 RMK A01 T01061059  RH  031%=      5-min Rain = 0
KLA1 080634Z 05003KT 10/M06 A2989 RMK A01 T01041060  RH  031%=      5-min Rain = 0
KLA1 080635Z 03003KT 11/M06 A2989 RMK A01 T01061060  RH  031%=      5-min Rain = 0
KLA1 080636Z 04002KT 11/M06 A2989 RMK A01 T01101063  RH  029%=      5-min Rain = 0
KLA1 080637Z 03002KT 12/M07 A2989 RMK A01 T01181065  RH  027%=      5-min Rain = 0
KLA1 080638Z 01001KT 12/M07 A2989 RMK A01 T01221067  RH  026%=      5-min Rain = 0
KLA1 080639Z 35001KT 13/M07 A2989 RMK A01 T01251070  RH  025%=      5-min Rain = 0
KLA1 080640Z 00000KT 13/M07 A2989 RMK A01 T01291072  RH  024%=      5-min Rain = 0
KLA1 080641Z 02000KT 13/M07 A2989 RMK A01 T01321074  RH  023%=      5-min Rain = 0
KLA1 080642Z 03002KT 13/M07 A2989 RMK A01 T01341067  RH  024%=      5-min Rain = 0
KLA1 080643Z 03003KT 13/M06 A2989 RMK A01 T01311064  RH  025%=      5-min Rain = 0
KLA1 080644Z 03003KT 13/M06 A2989 RMK A01 T01281062  RH  026%=      5-min Rain = 0
KLA1 080645Z 03003KT 12/M06 A2989 RMK A01 T01241063  RH  026%=      5-min Rain = 0
KLA1 080646Z 02003KT 12/M06 A2989 RMK A01 T01211063  RH  027%=      5-min Rain = 0
KLA1 080647Z 02003KT 12/M06 A2989 RMK A01 T01181061  RH  028%=      5-min Rain = 0
KLA1 080648Z 01002KT 12/M06 A2989 RMK A01 T01161059  RH  029%=      5-min Rain = 0
KLA1 080649Z 30003KT 11/M06 A2989 RMK A01 T01141059  RH  029%=      5-min Rain = 0
KLA1 080650Z 26003KT 11/M06 A2989 RMK A01 T01121059  RH  030%=      5-min Rain = 0
KLA1 080651Z 26002KT 11/M06 A2989 RMK A01 T01091059  RH  030%=      5-min Rain = 0
KLA1 080652Z 24001KT 11/M06 A2989 RMK A01 T01081058  RH  031%=      5-min Rain = 0
KLA1 080653Z 24001KT 11/M06 A2989 RMK A01 T01061057  RH  031%=      5-min Rain = 0
KLA1 080654Z 25002KT 10/M06 A2989 RMK A01 T01041057  RH  032%=      5-min Rain = 0
KLA1 080655Z 26002KT 10/M06 A2989 RMK A01 T01021058  RH  032%=      5-min Rain = 0
KLA1 080656Z 26002KT 10/M06 A2989 RMK A01 T01021063  RH  031%=      5-min Rain = 0
KLA1 080657Z 27002KT 10/M06 A2989 RMK A01 T01041064  RH  030%=      5-min Rain = 0
KLA1 080658Z 27001KT 11/M06 A2989 RMK A01 T01061064  RH  030%=      5-min Rain = 0
KLA1 080659Z 26001KT 11/M07 A2989 RMK A01 T01071065  RH  029%=      5-min Rain = 0
KLA1 080700Z 29001KT 11/M06 A2989 RMK A01 T01071064  RH  030%=      5-min Rain = 0
KLA1 080701Z 00000KT 11/M06 A2989 RMK A01 T01061063  RH  030%=      5-min Rain = 0
KLA1 080702Z 00000KT 10/M06 A2989 RMK A01 T01031061  RH  031%=      5-min Rain = 0
KLA1 080703Z 00000KT 10/M06 A2989 RMK A01 T01001060  RH  032%=      5-min Rain = 0
KLA1 080704Z 00000KT 10/M06 A2989 RMK A01 T00981059  RH  032%=      5-min Rain = 0
KLA1 080705Z 00000KT 10/M06 A2989 RMK A01 T00981058  RH  033%=      5-min Rain = 0
KLA1 080706Z 00000KT 10/M06 A2989 RMK A01 T00971056  RH  033%=      5-min Rain = 0
KLA1 080707Z 34000KT 10/M05 A2989 RMK A01 T00981054  RH  034%=      5-min Rain = 0
KLA1 080708Z 35000KT 10/M05 A299 RMK A01 T00971054  RH  034%=      5-min Rain = 0
KLA1 080709Z 34000KT 10/M06 A299 RMK A01 T00981055  RH  034%=      5-min Rain = 0
KLA1 080710Z 34001KT 10/M05 A299 RMK A01 T00981054  RH  034%=      5-min Rain = 0
KLA1 080711Z 31001KT 10/M06 A299 RMK A01 T00981056  RH  033%=      5-min Rain = 0
KLA1 080712Z 29001KT 10/M06 A299 RMK A01 T00961060  RH  033%=      5-min Rain = 0
KLA1 080713Z 29001KT 09/M06 A299 RMK A01 T00941060  RH  033%=      5-min Rain = 0
KLA1 080714Z 29000KT 09/M06 A299 RMK A01 T00931060  RH  033%=      5-min Rain = 0
KLA1 080715Z 00000KT 09/M06 A299 RMK A01 T00931059  RH  034%=      5-min Rain = 0
KLA1 080716Z 05001KT 09/M06 A299 RMK A01 T00921059  RH  034%=      5-min Rain = 0
KLA1 080717Z 04002KT 09/M06 A299 RMK A01 T00911058  RH  034%=      5-min Rain = 0
KLA1 080718Z 03002KT 09/M06 A299 RMK A01 T00911055  RH  035%=      5-min Rain = 0
KLA1 080719Z 03002KT 09/M05 A2989 RMK A01 T00931053  RH  035%=      5-min Rain = 0
KLA1 080720Z 03002KT 10/M05 A2989 RMK A01 T00951052  RH  035%=      5-min Rain = 0
KLA1 080721Z 03002KT 10/M05 A299 RMK A01 T00971054  RH  034%=      5-min Rain = 0
KLA1 080722Z 02001KT 10/M06 A2989 RMK A01 T01001056  RH  033%=      5-min Rain = 0
KLA1 080723Z 00001KT 11/M06 A2989 RMK A01 T01051058  RH  031%=      5-min Rain = 0
KLA1 080724Z 00001KT 11/M06 A299 RMK A01 T01101061  RH  030%=      5-min Rain = 0
KLA1 080725Z 28001KT 11/M06 A299 RMK A01 T01141061  RH  029%=      5-min Rain = 0
KLA1 080726Z 29002KT 12/M06 A299 RMK A01 T01151061  RH  028%=      5-min Rain = 0
KLA1 080727Z 28001KT 12/M06 A299 RMK A01 T01161064  RH  028%=      5-min Rain = 0
KLA1 080728Z 28001KT 12/M07 A2989 RMK A01 T01171067  RH  027%=      5-min Rain = 0
KLA1 080729Z 26000KT 12/M07 A2989 RMK A01 T01171070  RH  026%=      5-min Rain = 0
KLA1 080730Z 00000KT 12/M07 A299 RMK A01 T01171066  RH  027%=      5-min Rain = 0
KLA1 080731Z 00000KT 12/M06 A2989 RMK A01 T01161063  RH  028%=      5-min Rain = 0
KLA1 080732Z 00000KT 11/M06 A2989 RMK A01 T01121060  RH  029%=      5-min Rain = 0
KLA1 080733Z 25001KT 11/M06 A2989 RMK A01 T01081058  RH  031%=      5-min Rain = 0
KLA1 080734Z 25001KT 11/M06 A2989 RMK A01 T01051057  RH  032%=      5-min Rain = 0
KLA1 080735Z 24001KT 10/M06 A299 RMK A01 T01031058  RH  032%=      5-min Rain = 0
KLA1 080736Z 25001KT 10/M06 A299 RMK A01 T01021057  RH  032%=      5-min Rain = 0
KLA1 080737Z 26001KT 10/M06 A299 RMK A01 T01001057  RH  033%=      5-min Rain = 0
KLA1 080738Z 27001KT 10/M06 A299 RMK A01 T00991060  RH  032%=      5-min Rain = 0
KLA1 080739Z 28002KT 10/M06 A299 RMK A01 T00991060  RH  032%=      5-min Rain = 0
KLA1 080740Z 28002KT 10/M06 A299 RMK A01 T00991060  RH  032%=      5-min Rain = 0
KLA1 080741Z 28001KT 10/M06 A299 RMK A01 T00991062  RH  032%=      5-min Rain = 0
KLA1 080742Z 28001KT 10/M06 A299 RMK A01 T00991060  RH  032%=      5-min Rain = 0
KLA1 080743Z 30000KT 10/M06 A299 RMK A01 T00981058  RH  033%=      5-min Rain = 0
KLA1 080744Z 00000KT 10/M06 A299 RMK A01 T00981058  RH  033%=      5-min Rain = 0
KLA1 080745Z 00000KT 10/M05 A299 RMK A01 T00961054  RH  034%=      5-min Rain = 0
KLA1 080746Z 00000KT 09/M05 A299 RMK A01 T00931053  RH  035%=      5-min Rain = 0
KLA1 080747Z 00000KT 09/M05 A2989 RMK A01 T00921054  RH  035%=      5-min Rain = 0
KLA1 080748Z 00000KT 10/M06 A2989 RMK A01 T00951057  RH  034%=      5-min Rain = 0
KLA1 080749Z 00000KT 10/M06 A2989 RMK A01 T00991057  RH  033%=      5-min Rain = 0
KLA1 080750Z 34001KT 10/M06 A2989 RMK A01 T01011059  RH  032%=      5-min Rain = 0
KLA1 080751Z 34001KT 11/M06 A2989 RMK A01 T01061062  RH  030%=      5-min Rain = 0
KLA1 080752Z 30001KT 11/M06 A2989 RMK A01 T01091063  RH  029%=      5-min Rain = 0
KLA1 080753Z 29001KT 11/M06 A2989 RMK A01 T01101062  RH  029%=      5-min Rain = 0
KLA1 080754Z 26002KT 11/M06 A2989 RMK A01 T01091057  RH  031%=      5-min Rain = 0
KLA1 080755Z 28002KT 10/M06 A2989 RMK A01 T01041055  RH  032%=      5-min Rain = 0
KLA1 080756Z 29002KT 10/M06 A2989 RMK A01 T01001055  RH  033%=      5-min Rain = 0
KLA1 080757Z 30001KT 10/M06 A2989 RMK A01 T00961055  RH  034%=      5-min Rain = 0
KLA1 080758Z 31001KT 10/M06 A2989 RMK A01 T00951056  RH  034%=      5-min Rain = 0
KLA1 080759Z 03001KT 09/M06 A2989 RMK A01 T00941060  RH  033%=      5-min Rain = 0
KLA1 080800Z 04001KT 10/M06 A2989 RMK A01 T00951059  RH  033%=      5-min Rain = 0
KLA1 080801Z 03002KT 10/M06 A2989 RMK A01 T00971058  RH  033%=      5-min Rain = 0
KLA1 080802Z 02002KT 10/M06 A2989 RMK A01 T00981060  RH  032%=      5-min Rain = 0
KLA1 080803Z 02002KT 10/M06 A2989 RMK A01 T01031063  RH  031%=      5-min Rain = 0
KLA1 080804Z 01001KT 11/M07 A2989 RMK A01 T01091066  RH  029%=      5-min Rain = 0
KLA1 080805Z 02001KT 12/M07 A2989 RMK A01 T01161067  RH  027%=      5-min Rain = 0
KLA1 080806Z 03001KT 12/M06 A2989 RMK A01 T01171059  RH  029%=      5-min Rain = 0
KLA1 080807Z 03001KT 11/M06 A2989 RMK A01 T01141059  RH  029%=      5-min Rain = 0
KLA1 080808Z 03001KT 11/M06 A2989 RMK A01 T01111058  RH  030%=      5-min Rain = 0
KLA1 080809Z 02000KT 11/M06 A2989 RMK A01 T01081062  RH  030%=      5-min Rain = 0
KLA1 080810Z 00000KT 11/M07 A2989 RMK A01 T01101066  RH  029%=      5-min Rain = 0
KLA1 080811Z 00000KT 11/M07 A2989 RMK A01 T01111065  RH  028%=      5-min Rain = 0
KLA1 080812Z 00000KT 11/M06 A2989 RMK A01 T01111063  RH  029%=      5-min Rain = 0
KLA1 080813Z 00000KT 11/M06 A2989 RMK A01 T01081062  RH  030%=      5-min Rain = 0
KLA1 080814Z 00000KT 10/M06 A2989 RMK A01 T01041061  RH  031%=      5-min Rain = 0
KLA1 080815Z 35000KT 10/M06 A2989 RMK A01 T01021060  RH  032%=      5-min Rain = 0
KLA1 080816Z 00000KT 10/M06 A2989 RMK A01 T01011060  RH  032%=      5-min Rain = 0
KLA1 080817Z 00000KT 10/M06 A2989 RMK A01 T01021062  RH  031%=      5-min Rain = 0
KLA1 080818Z 00000KT 11/M06 A2989 RMK A01 T01051062  RH  030%=      5-min Rain = 0
KLA1 080819Z 00000KT 11/M06 A2989 RMK A01 T01071061  RH  030%=      5-min Rain = 0
KLA1 080820Z 16001KT 11/M06 A2989 RMK A01 T01081061  RH  030%=      5-min Rain = 0
KLA1 080821Z 16001KT 11/M06 A2989 RMK A01 T01091061  RH  030%=      5-min Rain = 0
KLA1 080822Z 15001KT 11/M06 A2989 RMK A01 T01091062  RH  029%=      5-min Rain = 0
KLA1 080823Z 10001KT 11/M06 A2989 RMK A01 T01081061  RH  030%=      5-min Rain = 0
KLA1 080824Z 11002KT 10/M06 A2989 RMK A01 T00991063  RH  031%=      5-min Rain = 0
KLA1 080825Z 12002KT 09/M06 A2989 RMK A01 T00911064  RH  033%=      5-min Rain = 0
KLA1 080826Z 14002KT 09/M06 A2989 RMK A01 T00871063  RH  034%=      5-min Rain = 0
KLA1 080827Z 00000KT 08/M06 A2989 RMK A01 T00841062  RH  035%=      5-min Rain = 0
KLA1 080828Z 15000KT 08/M06 A2989 RMK A01 T00821060  RH  036%=      5-min Rain = 0
KLA1 080829Z 23000KT 08/M06 A2989 RMK A01 T00811059  RH  036%=      5-min Rain = 0
KLA1 080830Z 27001KT 08/M06 A2989 RMK A01 T00801059  RH  037%=      5-min Rain = 0
KLA1 080831Z 26001KT 08/M06 A2989 RMK A01 T00781060  RH  037%=      5-min Rain = 0
KLA1 080832Z 22001KT 08/M06 A2989 RMK A01 T00781059  RH  037%=      5-min Rain = 0
KLA1 080833Z 17001KT 08/M06 A2989 RMK A01 T00771059  RH  037%=      5-min Rain = 0
KLA1 080834Z 15001KT 08/M06 A2989 RMK A01 T00771060  RH  037%=      5-min Rain = 0
KLA1 080835Z 13002KT 08/M06 A2989 RMK A01 T00781059  RH  037%=      5-min Rain = 0
KLA1 080836Z 10003KT 08/M06 A2988 RMK A01 T00771059  RH  037%=      5-min Rain = 0
KLA1 080837Z 09003KT 08/M06 A2988 RMK A01 T00761060  RH  037%=      5-min Rain = 0
KLA1 080838Z 07002KT 07/M06 A2988 RMK A01 T00741060  RH  038%=      5-min Rain = 0
KLA1 080839Z 03001KT 07/M06 A2988 RMK A01 T00731059  RH  038%=      5-min Rain = 0
KLA1 080840Z 01002KT 07/M06 A2988 RMK A01 T00731058  RH  039%=      5-min Rain = 0
KLA1 080841Z 30003KT 08/M06 A2988 RMK A01 T00771057  RH  038%=      5-min Rain = 0
KLA1 080842Z 28004KT 08/M06 A2989 RMK A01 T00791058  RH  037%=      5-min Rain = 0
KLA1 080843Z 29002KT 08/M06 A2988 RMK A01 T00791059  RH  037%=      5-min Rain = 0
KLA1 080844Z 30001KT 08/M06 A2988 RMK A01 T00791059  RH  037%=      5-min Rain = 0
KLA1 080845Z 00000KT 08/M06 A2988 RMK A01 T00791061  RH  036%=      5-min Rain = 0
KLA1 080846Z 04000KT 08/M06 A2988 RMK A01 T00791062  RH  036%=      5-min Rain = 0
KLA1 080847Z 04001KT 08/M06 A2988 RMK A01 T00801062  RH  036%=      5-min Rain = 0
KLA1 080848Z 02001KT 08/M06 A2988 RMK A01 T00801060  RH  036%=      5-min Rain = 0
KLA1 080849Z 02002KT 08/M06 A2988 RMK A01 T00791059  RH  037%=      5-min Rain = 0
KLA1 080850Z 02002KT 08/M06 A2988 RMK A01 T00791057  RH  037%=      5-min Rain = 0
KLA1 080851Z 02000KT 08/M06 A2988 RMK A01 T00791056  RH  038%=      5-min Rain = 0
KLA1 080852Z 33000KT 08/M06 A2988 RMK A01 T00801056  RH  038%=      5-min Rain = 0
KLA1 080853Z 31000KT 08/M06 A2988 RMK A01 T00811056  RH  037%=      5-min Rain = 0
KLA1 080854Z 00000KT 08/M06 A2988 RMK A01 T00821058  RH  037%=      5-min Rain = 0
KLA1 080855Z 13000KT 09/M06 A2988 RMK A01 T00851059  RH  036%=      5-min Rain = 0
KLA1 080856Z 13001KT 09/M06 A2988 RMK A01 T00861056  RH  036%=      5-min Rain = 0
KLA1 080857Z 09001KT 09/M06 A2988 RMK A01 T00861056  RH  036%=      5-min Rain = 0
KLA1 080858Z 10002KT 09/M06 A2988 RMK A01 T00851056  RH  036%=      5-min Rain = 0
KLA1 080859Z 08002KT 08/M05 A2988 RMK A01 T00841054  RH  037%=      5-min Rain = 0
KLA1 080900Z 05003KT 08/M05 A2988 RMK A01 T00831053  RH  038%=      5-min Rain = 0
KLA1 080901Z 04003KT 08/M05 A2988 RMK A01 T00831053  RH  038%=      5-min Rain = 0
KLA1 080902Z 03002KT 08/M05 A2988 RMK A01 T00841054  RH  037%=      5-min Rain = 0
KLA1 080903Z 04003KT 09/M06 A2988 RMK A01 T00871055  RH  036%=      5-min Rain = 0
KLA1 080904Z 03002KT 09/M06 A2988 RMK A01 T00921057  RH  034%=      5-min Rain = 0
KLA1 080905Z 03003KT 10/M06 A2988 RMK A01 T00971058  RH  033%=      5-min Rain = 0
KLA1 080906Z 03003KT 10/M06 A2988 RMK A01 T01011062  RH  031%=      5-min Rain = 0
KLA1 080907Z 02003KT 11/M06 A2988 RMK A01 T01051063  RH  030%=      5-min Rain = 0
KLA1 080908Z 33003KT 11/M06 A2988 RMK A01 T01101064  RH  029%=      5-min Rain = 0
KLA1 080909Z 29007KT 11/M06 A2988 RMK A01 T01091059  RH  030%=      5-min Rain = 0
KLA1 080910Z 29006KT 10/M06 A2988 RMK A01 T01021059  RH  032%=      5-min Rain = 0
KLA1 080911Z 29006KT 09/M06 A2988 RMK A01 T00941061  RH  033%=      5-min Rain = 0
KLA1 080912Z 29005KT 09/M06 A2988 RMK A01 T00891062  RH  034%=      5-min Rain = 0
KLA1 080913Z 30003KT 09/M06 A2988 RMK A01 T00891063  RH  034%=      5-min Rain = 0
KLA1 080914Z 30002KT 09/M06 A2988 RMK A01 T00921062  RH  033%=      5-min Rain = 0
KLA1 080915Z 34000KT 09/M06 A2988 RMK A01 T00921060  RH  033%=      5-min Rain = 0
KLA1 080916Z 06000KT 09/M06 A2988 RMK A01 T00921059  RH  034%=      5-min Rain = 0
KLA1 080917Z 07001KT 09/M06 A2987 RMK A01 T00911059  RH  034%=      5-min Rain = 0
KLA1 080918Z 08002KT 09/M06 A2987 RMK A01 T00891059  RH  034%=      5-min Rain = 0
KLA1 080919Z 09002KT 09/M06 A2987 RMK A01 T00871060  RH  035%=      5-min Rain = 0
KLA1 080920Z 07002KT 08/M06 A2987 RMK A01 T00841060  RH  036%=      5-min Rain = 0
KLA1 080921Z 07002KT 08/M06 A2987 RMK A01 T00811059  RH  036%=      5-min Rain = 0
KLA1 080922Z 09001KT 08/M06 A2987 RMK A01 T00801058  RH  037%=      5-min Rain = 0
KLA1 080923Z 10001KT 08/M06 A2987 RMK A01 T00791058  RH  037%=      5-min Rain = 0
KLA1 080924Z 13001KT 08/M06 A2987 RMK A01 T00781058  RH  037%=      5-min Rain = 0
KLA1 080925Z 16000KT 08/M06 A2987 RMK A01 T00781059  RH  037%=      5-min Rain = 0
KLA1 080926Z 28000KT 08/M06 A2987 RMK A01 T00791060  RH  037%=      5-min Rain = 0
KLA1 080927Z 29003KT 08/M06 A2987 RMK A01 T00791057  RH  038%=      5-min Rain = 0
KLA1 080928Z 27003KT 08/M06 A2987 RMK A01 T00791059  RH  037%=      5-min Rain = 0
KLA1 080929Z 28004KT 08/M06 A2987 RMK A01 T00781061  RH  037%=      5-min Rain = 0
KLA1 080930Z 28002KT 08/M06 A2987 RMK A01 T00761062  RH  037%=      5-min Rain = 0
KLA1 080931Z 27001KT 08/M06 A2987 RMK A01 T00751061  RH  037%=      5-min Rain = 0
KLA1 080932Z 27000KT 08/M06 A2987 RMK A01 T00751061  RH  037%=      5-min Rain = 0
KLA1 080933Z 30001KT 08/M06 A2987 RMK A01 T00751061  RH  037%=      5-min Rain = 0
KLA1 080934Z 26001KT 08/M06 A2987 RMK A01 T00751061  RH  038%=      5-min Rain = 0
KLA1 080935Z 24000KT 07/M06 A2987 RMK A01 T00741060  RH  038%=      5-min Rain = 0
KLA1 080936Z 00000KT 07/M06 A2987 RMK A01 T00721060  RH  039%=      5-min Rain = 0
KLA1 080937Z 00000KT 07/M06 A2987 RMK A01 T00701060  RH  039%=      5-min Rain = 0
KLA1 080938Z 00000KT 07/M06 A2987 RMK A01 T00691060  RH  039%=      5-min Rain = 0
KLA1 080939Z 00000KT 07/M06 A2987 RMK A01 T00691059  RH  040%=      5-min Rain = 0
KLA1 080940Z 00000KT 07/M06 A2987 RMK A01 T00691059  RH  040%=      5-min Rain = 0
KLA1 080941Z 00000KT 07/M06 A2987 RMK A01 T00691058  RH  040%=      5-min Rain = 0
KLA1 080942Z 00000KT 07/M06 A2987 RMK A01 T00701058  RH  040%=      5-min Rain = 0
KLA1 080943Z 02002KT 07/M06 A2987 RMK A01 T00731057  RH  039%=      5-min Rain = 0
KLA1 080944Z 02003KT 08/M06 A2987 RMK A01 T00761056  RH  038%=      5-min Rain = 0
KLA1 080945Z 01002KT 08/M06 A2987 RMK A01 T00791056  RH  038%=      5-min Rain = 0
KLA1 080946Z 00002KT 08/M06 A2987 RMK A01 T00811058  RH  037%=      5-min Rain = 0
KLA1 080947Z 01002KT 08/M06 A2987 RMK A01 T00821058  RH  037%=      5-min Rain = 0
KLA1 080948Z 01002KT 08/M06 A2987 RMK A01 T00831058  RH  036%=      5-min Rain = 0
KLA1 080949Z 03003KT 09/M06 A2987 RMK A01 T00851058  RH  036%=      5-min Rain = 0
KLA1 080950Z 04003KT 09/M06 A2987 RMK A01 T00871058  RH  035%=      5-min Rain = 0
KLA1 080951Z 04004KT 09/M06 A2987 RMK A01 T00881058  RH  035%=      5-min Rain = 0
KLA1 080952Z 04004KT 09/M06 A2987 RMK A01 T00851059  RH  036%=      5-min Rain = 0
KLA1 080953Z 05004KT 08/M06 A2987 RMK A01 T00781059  RH  037%=      5-min Rain = 0
KLA1 080954Z 06003KT 07/M06 A2987 RMK A01 T00741057  RH  039%=      5-min Rain = 0
KLA1 080955Z 07001KT 08/M06 A2987 RMK A01 T00751055  RH  039%=      5-min Rain = 0
KLA1 080956Z 12001KT 08/M06 A2987 RMK A01 T00791055  RH  038%=      5-min Rain = 0
KLA1 080957Z 15002KT 08/M06 A2987 RMK A01 T00821056  RH  037%=      5-min Rain = 0
KLA1 080958Z 29005KT 08/M06 A2987 RMK A01 T00841059  RH  036%=      5-min Rain = 0
KLA1 080959Z 31008KT 08/M06 A2987 RMK A01 T00811062  RH  036%=      5-min Rain = 0
KLA1 081000Z 27004KT 08/M06 A2987 RMK A01 T00801063  RH  035%=      5-min Rain = 0
KLA1 081001Z 31004KT 08/M06 A2987 RMK A01 T00801064  RH  035%=      5-min Rain = 0
KLA1 081002Z 31005KT 08/M07 A2987 RMK A01 T00801065  RH  035%=      5-min Rain = 0
KLA1 081003Z 31003KT 08/M07 A2987 RMK A01 T00821066  RH  034%=      5-min Rain = 0
KLA1 081004Z 33000KT 08/M07 A2987 RMK A01 T00841066  RH  034%=      5-min Rain = 0
KLA1 081005Z 35000KT 08/M07 A2987 RMK A01 T00841066  RH  034%=      5-min Rain = 0
KLA1 081006Z 07001KT 09/M07 A2987 RMK A01 T00851067  RH  034%=      5-min Rain = 0
KLA1 081007Z 06002KT 09/M07 A2987 RMK A01 T00861065  RH  034%=      5-min Rain = 0
KLA1 081008Z 06003KT 09/M07 A2987 RMK A01 T00851065  RH  034%=      5-min Rain = 0
KLA1 081009Z 05002KT 09/M06 A2987 RMK A01 T00851064  RH  034%=      5-min Rain = 0
KLA1 081010Z 05002KT 09/M06 A2987 RMK A01 T00861063  RH  034%=      5-min Rain = 0
KLA1 081011Z 06001KT 09/M06 A2987 RMK A01 T00861063  RH  034%=      5-min Rain = 0
KLA1 081012Z 30000KT 09/M06 A2987 RMK A01 T00861062  RH  034%=      5-min Rain = 0
KLA1 081013Z 30002KT 09/M06 A2988 RMK A01 T00861063  RH  034%=      5-min Rain = 0
KLA1 081014Z 29003KT 09/M06 A2988 RMK A01 T00881064  RH  034%=      5-min Rain = 0
KLA1 081015Z 29003KT 09/M06 A2988 RMK A01 T00891064  RH  033%=      5-min Rain = 0
KLA1 081016Z 29002KT 09/M06 A2988 RMK A01 T00911064  RH  033%=      5-min Rain = 0
KLA1 081017Z 29002KT 09/M06 A2988 RMK A01 T00911064  RH  033%=      5-min Rain = 0
KLA1 081018Z 29002KT 09/M06 A2988 RMK A01 T00911064  RH  033%=      5-min Rain = 0
KLA1 081019Z 33000KT 09/M06 A2988 RMK A01 T00911064  RH  033%=      5-min Rain = 0
KLA1 081020Z 04001KT 09/M06 A2987 RMK A01 T00901064  RH  033%=      5-min Rain = 0
KLA1 081021Z 03003KT 09/M06 A2987 RMK A01 T00891063  RH  033%=      5-min Rain = 0
KLA1 081022Z 04003KT 09/M06 A2987 RMK A01 T00871063  RH  034%=      5-min Rain = 0
KLA1 081023Z 04003KT 09/M06 A2987 RMK A01 T00871063  RH  034%=      5-min Rain = 0
KLA1 081024Z 02003KT 09/M06 A2987 RMK A01 T00881062  RH  034%=      5-min Rain = 0
KLA1 081025Z 02003KT 09/M06 A2987 RMK A01 T00901062  RH  034%=      5-min Rain = 0
KLA1 081026Z 00003KT 09/M06 A2987 RMK A01 T00931062  RH  033%=      5-min Rain = 0
KLA1 081027Z 34003KT 10/M06 A2987 RMK A01 T00961062  RH  032%=      5-min Rain = 0
KLA1 081028Z 29001KT 10/M06 A2987 RMK A01 T00971063  RH  032%=      5-min Rain = 0
KLA1 081029Z 30000KT 10/M06 A2987 RMK A01 T00961063  RH  032%=      5-min Rain = 0
KLA1 081030Z 32001KT 10/M07 A2987 RMK A01 T00961065  RH  032%=      5-min Rain = 0
KLA1 081031Z 32001KT 10/M07 A2987 RMK A01 T00961066  RH  031%=      5-min Rain = 0
KLA1 081032Z 31001KT 10/M07 A2987 RMK A01 T00961065  RH  032%=      5-min Rain = 0
KLA1 081033Z 31000KT 09/M06 A2987 RMK A01 T00941062  RH  033%=      5-min Rain = 0
KLA1 081034Z 27002KT 09/M06 A2987 RMK A01 T00901062  RH  033%=      5-min Rain = 0
KLA1 081035Z 29001KT 08/M07 A2987 RMK A01 T00831065  RH  034%=      5-min Rain = 0
KLA1 081036Z 30001KT 08/M07 A2987 RMK A01 T00761066  RH  036%=      5-min Rain = 0
KLA1 081037Z 26003KT 07/M07 A2987 RMK A01 T00711065  RH  037%=      5-min Rain = 0
KLA1 081038Z 26003KT 07/M07 A2987 RMK A01 T00661066  RH  038%=      5-min Rain = 0
KLA1 081039Z 28003KT 06/M07 A2987 RMK A01 T00621066  RH  039%=      5-min Rain = 0
KLA1 081040Z 28003KT 06/M07 A2987 RMK A01 T00611065  RH  040%=      5-min Rain = 0
KLA1 081041Z 28003KT 06/M06 A2987 RMK A01 T00601064  RH  040%=      5-min Rain = 0
KLA1 081042Z 28002KT 06/M06 A2987 RMK A01 T00601064  RH  041%=      5-min Rain = 0
KLA1 081043Z 27002KT 06/M06 A2987 RMK A01 T00601063  RH  041%=      5-min Rain = 0
KLA1 081044Z 28002KT 06/M06 A2987 RMK A01 T00601063  RH  041%=      5-min Rain = 0
KLA1 081045Z 29001KT 06/M06 A2987 RMK A01 T00601064  RH  041%=      5-min Rain = 0
KLA1 081046Z 33002KT 06/M06 A2987 RMK A01 T00591064  RH  041%=      5-min Rain = 0
KLA1 081047Z 34000KT 06/M06 A2987 RMK A01 T00591064  RH  041%=      5-min Rain = 0
KLA1 081048Z 13001KT 06/M06 A2987 RMK A01 T00581064  RH  041%=      5-min Rain = 0
KLA1 081049Z 32000KT 06/M07 A2987 RMK A01 T00571065  RH  041%=      5-min Rain = 0
KLA1 081050Z 01001KT 06/M06 A2987 RMK A01 T00561064  RH  042%=      5-min Rain = 0
KLA1 081051Z 03000KT 06/M06 A2987 RMK A01 T00561064  RH  042%=      5-min Rain = 0
KLA1 081052Z 13000KT 06/M06 A2987 RMK A01 T00581062  RH  042%=      5-min Rain = 0
KLA1 081053Z 05000KT 06/M06 A2987 RMK A01 T00611060  RH  041%=      5-min Rain = 0
KLA1 081054Z 04002KT 07/M06 A2987 RMK A01 T00671059  RH  040%=      5-min Rain = 0
KLA1 081055Z 03001KT 07/M06 A2987 RMK A01 T00711058  RH  039%=      5-min Rain = 0
KLA1 081056Z 35001KT 08/M06 A2987 RMK A01 T00751058  RH  038%=      5-min Rain = 0
KLA1 081057Z 00001KT 08/M06 A2987 RMK A01 T00791058  RH  037%=      5-min Rain = 0
KLA1 081058Z 36001KT 08/M06 A2987 RMK A01 T00821058  RH  036%=      5-min Rain = 0
KLA1 081059Z 01001KT 08/M06 A2987 RMK A01 T00841058  RH  036%=      5-min Rain = 0
KLA1 081100Z 34001KT 08/M06 A2987 RMK A01 T00841058  RH  036%=      5-min Rain = 0
KLA1 081101Z 29001KT 08/M06 A2987 RMK A01 T00831059  RH  036%=      5-min Rain = 0
KLA1 081102Z 25001KT 08/M06 A2987 RMK A01 T00841059  RH  036%=      5-min Rain = 0
KLA1 081103Z 28001KT 08/M06 A2987 RMK A01 T00841060  RH  035%=      5-min Rain = 0
KLA1 081104Z 22001KT 08/M06 A2987 RMK A01 T00841061  RH  035%=      5-min Rain = 0
KLA1 081105Z 28002KT 08/M06 A2987 RMK A01 T00841061  RH  035%=      5-min Rain = 0
KLA1 081106Z 29003KT 08/M06 A2987 RMK A01 T00831061  RH  036%=      5-min Rain = 0
KLA1 081107Z 29003KT 08/M06 A2987 RMK A01 T00821060  RH  036%=      5-min Rain = 0
KLA1 081108Z 29002KT 08/M06 A2987 RMK A01 T00811060  RH  036%=      5-min Rain = 0
KLA1 081109Z 30001KT 08/M06 A2987 RMK A01 T00801061  RH  036%=      5-min Rain = 0
KLA1 081110Z 28000KT 08/M06 A2987 RMK A01 T00791062  RH  036%=      5-min Rain = 0
KLA1 081111Z 29001KT 08/M06 A2987 RMK A01 T00781060  RH  037%=      5-min Rain = 0
KLA1 081112Z 30000KT 08/M06 A2987 RMK A01 T00761061  RH  037%=      5-min Rain = 0
KLA1 081113Z 32000KT 07/M06 A2987 RMK A01 T00741061  RH  038%=      5-min Rain = 0
KLA1 081114Z 29001KT 07/M06 A2987 RMK A01 T00731061  RH  038%=      5-min Rain = 0
KLA1 081115Z 29002KT 07/M06 A2987 RMK A01 T00721060  RH  038%=      5-min Rain = 0
KLA1 081116Z 29002KT 07/M06 A2987 RMK A01 T00721059  RH  039%=      5-min Rain = 0
KLA1 081117Z 27003KT 07/M06 A2988 RMK A01 T00721057  RH  039%=      5-min Rain = 0
KLA1 081118Z 28004KT 07/M06 A2988 RMK A01 T00711058  RH  039%=      5-min Rain = 0
KLA1 081119Z 29004KT 07/M06 A2988 RMK A01 T00721062  RH  038%=      5-min Rain = 0
KLA1 081120Z 28004KT 07/M06 A2988 RMK A01 T00741063  RH  037%=      5-min Rain = 0
KLA1 081121Z 27004KT 08/M06 A2988 RMK A01 T00761063  RH  037%=      5-min Rain = 0
KLA1 081122Z 27004KT 08/M06 A2988 RMK A01 T00781063  RH  036%=      5-min Rain = 0
KLA1 081123Z 28004KT 08/M06 A2987 RMK A01 T00801064  RH  035%=      5-min Rain = 0
KLA1 081124Z 29004KT 08/M06 A2987 RMK A01 T00831064  RH  035%=      5-min Rain = 0
KLA1 081125Z 28004KT 09/M07 A2987 RMK A01 T00851065  RH  034%=      5-min Rain = 0
KLA1 081126Z 28005KT 09/M06 A2988 RMK A01 T00861064  RH  034%=      5-min Rain = 0
KLA1 081127Z 28004KT 09/M06 A2988 RMK A01 T00871064  RH  034%=      5-min Rain = 0
KLA1 081128Z 29004KT 09/M06 A2988 RMK A01 T00881064  RH  034%=      5-min Rain = 0
KLA1 081129Z 29003KT 09/M06 A2988 RMK A01 T00881062  RH  034%=      5-min Rain = 0
KLA1 081130Z 30002KT 09/M06 A2987 RMK A01 T00861061  RH  035%=      5-min Rain = 0
KLA1 081131Z 31001KT 08/M06 A2987 RMK A01 T00841061  RH  035%=      5-min Rain = 0
KLA1 081132Z 01002KT 08/M06 A2987 RMK A01 T00811059  RH  036%=      5-min Rain = 0
KLA1 081133Z 01001KT 08/M06 A2987 RMK A01 T00761060  RH  038%=      5-min Rain = 0
KLA1 081134Z 03002KT 07/M06 A2987 RMK A01 T00721060  RH  039%=      5-min Rain = 0
KLA1 081135Z 00002KT 07/M06 A2987 RMK A01 T00711059  RH  039%=      5-min Rain = 0
KLA1 081136Z 33001KT 07/M06 A2987 RMK A01 T00701059  RH  039%=      5-min Rain = 0
KLA1 081137Z 29002KT 07/M06 A2987 RMK A01 T00711060  RH  039%=      5-min Rain = 0
KLA1 081138Z 29002KT 07/M06 A2987 RMK A01 T00731060  RH  038%=      5-min Rain = 0
KLA1 081139Z 27003KT 07/M06 A2987 RMK A01 T00741060  RH  038%=      5-min Rain = 0
KLA1 081140Z 27002KT 08/M06 A2987 RMK A01 T00751060  RH  038%=      5-min Rain = 0
KLA1 081141Z 28003KT 08/M06 A2987 RMK A01 T00751061  RH  037%=      5-min Rain = 0
KLA1 081142Z 30003KT 08/M06 A2987 RMK A01 T00761061  RH  037%=      5-min Rain = 0
KLA1 081143Z 30003KT 08/M06 A2987 RMK A01 T00771062  RH  037%=      5-min Rain = 0
KLA1 081144Z 30003KT 08/M06 A2987 RMK A01 T00791062  RH  036%=      5-min Rain = 0
KLA1 081145Z 29003KT 08/M06 A2987 RMK A01 T00791061  RH  036%=      5-min Rain = 0
KLA1 081146Z 30003KT 08/M06 A2987 RMK A01 T00791059  RH  037%=      5-min Rain = 0
KLA1 081147Z 29003KT 08/M06 A2987 RMK A01 T00781059  RH  037%=      5-min Rain = 0
KLA1 081148Z 29003KT 08/M06 A2987 RMK A01 T00771059  RH  038%=      5-min Rain = 0
KLA1 081149Z 31002KT 08/M06 A2987 RMK A01 T00761059  RH  038%=      5-min Rain = 0
KLA1 081150Z 32001KT 08/M06 A2987 RMK A01 T00751060  RH  038%=      5-min Rain = 0
KLA1 081151Z 32000KT 08/M06 A2987 RMK A01 T00751061  RH  037%=      5-min Rain = 0
KLA1 081152Z 35000KT 08/M06 A2987 RMK A01 T00761060  RH  038%=      5-min Rain = 0
KLA1 081153Z 36001KT 08/M06 A2987 RMK A01 T00761059  RH  038%=      5-min Rain = 0
KLA1 081154Z 35000KT 08/M06 A2987 RMK A01 T00751057  RH  038%=      5-min Rain = 0
KLA1 081155Z 27003KT 07/M06 A2987 RMK A01 T00741058  RH  039%=      5-min Rain = 0
KLA1 081156Z 28004KT 08/M06 A2987 RMK A01 T00751059  RH  038%=      5-min Rain = 0
KLA1 081157Z 28004KT 08/M06 A2987 RMK A01 T00751059  RH  038%=      5-min Rain = 0
KLA1 081158Z 28005KT 08/M06 A2987 RMK A01 T00751059  RH  038%=      5-min Rain = 0
KLA1 081159Z 27005KT 08/M06 A2987 RMK A01 T00751059  RH  038%=      5-min Rain = 0
KLA1 081200Z 27005KT 08/M06 A2987 RMK A01 T00751060  RH  038%=      5-min Rain = 0
KLA1 081201Z 27004KT 08/M06 A2987 RMK A01 T00771059  RH  037%=      5-min Rain = 0
KLA1 081202Z 27004KT 08/M06 A2987 RMK A01 T00781058  RH  038%=      5-min Rain = 0
KLA1 081203Z 28004KT 08/M06 A2987 RMK A01 T00781057  RH  038%=      5-min Rain = 0
KLA1 081204Z 29005KT 08/M06 A2987 RMK A01 T00791055  RH  038%=      5-min Rain = 0
KLA1 081205Z 28004KT 08/M06 A2987 RMK A01 T00801055  RH  038%=      5-min Rain = 0
KLA1 081206Z 29003KT 08/M06 A2987 RMK A01 T00811055  RH  038%=      5-min Rain = 0
KLA1 081207Z 31002KT 08/M06 A2987 RMK A01 T00811055  RH  038%=      5-min Rain = 0
KLA1 081208Z 28002KT 08/M06 A2987 RMK A01 T00801057  RH  037%=      5-min Rain = 0
KLA1 081209Z 29002KT 08/M06 A2987 RMK A01 T00781058  RH  038%=      5-min Rain = 0
KLA1 081210Z 30002KT 08/M06 A2987 RMK A01 T00771058  RH  038%=      5-min Rain = 0
KLA1 081211Z 29003KT 08/M06 A2987 RMK A01 T00771058  RH  038%=      5-min Rain = 0
KLA1 081212Z 29003KT 08/M06 A2987 RMK A01 T00771058  RH  038%=      5-min Rain = 0
KLA1 081213Z 27003KT 08/M06 A2987 RMK A01 T00771058  RH  038%=      5-min Rain = 0
KLA1 081214Z 27003KT 08/M06 A2987 RMK A01 T00771057  RH  038%=      5-min Rain = 0
KLA1 081215Z 28002KT 08/M06 A2987 RMK A01 T00761055  RH  039%=      5-min Rain = 0
KLA1 081216Z 28003KT 08/M05 A2987 RMK A01 T00771054  RH  039%=      5-min Rain = 0
KLA1 081217Z 28003KT 08/M06 A2987 RMK A01 T00751055  RH  039%=      5-min Rain = 0
KLA1 081218Z 28003KT 07/M06 A2987 RMK A01 T00741056  RH  039%=      5-min Rain = 0
KLA1 081219Z 28003KT 07/M06 A2987 RMK A01 T00731056  RH  039%=      5-min Rain = 0
KLA1 081220Z 28002KT 07/M06 A2987 RMK A01 T00731056  RH  040%=      5-min Rain = 0
KLA1 081221Z 29002KT 07/M06 A2987 RMK A01 T00731056  RH  039%=      5-min Rain = 0
KLA1 081222Z 30002KT 07/M06 A2987 RMK A01 T00731056  RH  039%=      5-min Rain = 0
KLA1 081223Z 31002KT 07/M06 A2987 RMK A01 T00731057  RH  039%=      5-min Rain = 0
KLA1 081224Z 32001KT 07/M06 A2987 RMK A01 T00731056  RH  040%=      5-min Rain = 0
KLA1 081225Z 32001KT 07/M06 A2987 RMK A01 T00721055  RH  040%=      5-min Rain = 0
KLA1 081226Z 30002KT 07/M06 A2987 RMK A01 T00711056  RH  040%=      5-min Rain = 0
KLA1 081227Z 32002KT 07/M06 A2987 RMK A01 T00711055  RH  040%=      5-min Rain = 0
KLA1 081228Z 32002KT 07/M05 A2987 RMK A01 T00711054  RH  041%=      5-min Rain = 0
KLA1 081229Z 31002KT 07/M05 A2987 RMK A01 T00711054  RH  041%=      5-min Rain = 0
KLA1 081230Z 32001KT 07/M05 A2987 RMK A01 T00721054  RH  040%=      5-min Rain = 0
KLA1 081231Z 32001KT 07/M06 A2987 RMK A01 T00731055  RH  040%=      5-min Rain = 0
KLA1 081232Z 30001KT 08/M06 A2987 RMK A01 T00751056  RH  039%=      5-min Rain = 0
KLA1 081233Z 28001KT 08/M06 A2987 RMK A01 T00771056  RH  038%=      5-min Rain = 0
KLA1 081234Z 30002KT 08/M06 A2987 RMK A01 T00781055  RH  038%=      5-min Rain = 0
KLA1 081235Z 30002KT 08/M06 A2987 RMK A01 T00781055  RH  038%=      5-min Rain = 0
KLA1 081236Z 28002KT 08/M06 A2987 RMK A01 T00791056  RH  038%=      5-min Rain = 0
KLA1 081237Z 30003KT 08/M06 A2987 RMK A01 T00801057  RH  037%=      5-min Rain = 0
KLA1 081238Z 29003KT 08/M06 A2987 RMK A01 T00801056  RH  037%=      5-min Rain = 0
KLA1 081239Z 29003KT 08/M06 A2987 RMK A01 T00811056  RH  037%=      5-min Rain = 0
KLA1 081240Z 28003KT 08/M06 A2987 RMK A01 T00801055  RH  038%=      5-min Rain = 0
KLA1 081241Z 31002KT 08/M06 A2987 RMK A01 T00811056  RH  038%=      5-min Rain = 0
KLA1 081242Z 31002KT 08/M06 A2987 RMK A01 T00811056  RH  037%=      5-min Rain = 0
KLA1 081243Z 31000KT 08/M05 A2988 RMK A01 T00811054  RH  038%=      5-min Rain = 0
KLA1 081244Z 32000KT 08/M05 A2988 RMK A01 T00791052  RH  039%=      5-min Rain = 0
KLA1 081245Z 34001KT 08/M05 A2987 RMK A01 T00771053  RH  039%=      5-min Rain = 0
KLA1 081246Z 32001KT 08/M05 A2987 RMK A01 T00761053  RH  040%=      5-min Rain = 0
KLA1 081247Z 28002KT 08/M05 A2988 RMK A01 T00751053  RH  040%=      5-min Rain = 0
KLA1 081248Z 28002KT 08/M05 A2987 RMK A01 T00751053  RH  040%=      5-min Rain = 0
KLA1 081249Z 27001KT 08/M05 A2987 RMK A01 T00751054  RH  040%=      5-min Rain = 0
KLA1 081250Z 28000KT 08/M06 A2987 RMK A01 T00761056  RH  039%=      5-min Rain = 0
KLA1 081251Z 00000KT 08/M06 A2987 RMK A01 T00781055  RH  038%=      5-min Rain = 0
KLA1 081252Z 00000KT 08/M06 A2987 RMK A01 T00791055  RH  038%=      5-min Rain = 0
KLA1 081253Z 00000KT 08/M05 A2987 RMK A01 T00801054  RH  038%=      5-min Rain = 0
KLA1 081254Z 00000KT 08/M05 A2987 RMK A01 T00791053  RH  039%=      5-min Rain = 0
KLA1 081255Z 00000KT 08/M05 A2987 RMK A01 T00781051  RH  040%=      5-min Rain = 0
KLA1 081256Z 00000KT 08/M05 A2987 RMK A01 T00781050  RH  040%=      5-min Rain = 0
KLA1 081257Z 00000KT 08/M05 A2987 RMK A01 T00781051  RH  040%=      5-min Rain = 0
KLA1 081258Z 00000KT 08/M05 A2987 RMK A01 T00791051  RH  039%=      5-min Rain = 0
KLA1 081259Z 00000KT 08/M05 A2987 RMK A01 T00801052  RH  039%=      5-min Rain = 0
KLA1 081300Z 31000KT 08/M05 A2987 RMK A01 T00811049  RH  039%=      5-min Rain = 0
KLA1 081301Z 27001KT 08/M05 A2987 RMK A01 T00831047  RH  040%=      5-min Rain = 0
KLA1 081302Z 25001KT 08/M05 A2987 RMK A01 T00841047  RH  039%=      5-min Rain = 0
KLA1 081303Z 27001KT 09/M05 A2987 RMK A01 T00861046  RH  039%=      5-min Rain = 0
KLA1 081304Z 27002KT 09/M05 A2987 RMK A01 T00881046  RH  038%=      5-min Rain = 0
KLA1 081305Z 27002KT 09/M05 A2987 RMK A01 T00901049  RH  037%=      5-min Rain = 0
KLA1 081306Z 27001KT 09/M05 A2987 RMK A01 T00911049  RH  037%=      5-min Rain = 0
KLA1 081307Z 26002KT 09/M05 A2987 RMK A01 T00921051  RH  036%=      5-min Rain = 0
KLA1 081308Z 26002KT 09/M06 A2987 RMK A01 T00931055  RH  035%=      5-min Rain = 0
KLA1 081309Z 27002KT 09/M06 A2987 RMK A01 T00941057  RH  034%=      5-min Rain = 0
KLA1 081310Z 28000KT 10/M06 A2987 RMK A01 T00951055  RH  034%=      5-min Rain = 0
KLA1 081311Z 29001KT 10/M06 A2987 RMK A01 T00961056  RH  034%=      5-min Rain = 0
KLA1 081312Z 29000KT 10/M06 A2987 RMK A01 T00981056  RH  033%=      5-min Rain = 0
KLA1 081313Z 00000KT 10/M06 A2987 RMK A01 T01001056  RH  033%=      5-min Rain = 0
KLA1 081314Z 00000KT 10/M06 A2987 RMK A01 T01021056  RH  032%=      5-min Rain = 0
KLA1 081315Z 24001KT 10/M06 A2987 RMK A01 T01041055  RH  032%=      5-min Rain = 0
KLA1 081316Z 24000KT 10/M06 A2987 RMK A01 T01041057  RH  032%=      5-min Rain = 0
KLA1 081317Z 31001KT 10/M06 A2987 RMK A01 T01041056  RH  032%=      5-min Rain = 0
KLA1 081318Z 29001KT 11/M06 A2988 RMK A01 T01051056  RH  032%=      5-min Rain = 0
KLA1 081319Z 27002KT 11/M06 A2988 RMK A01 T01051058  RH  031%=      5-min Rain = 0
KLA1 081320Z 27002KT 11/M06 A2988 RMK A01 T01061057  RH  031%=      5-min Rain = 0
KLA1 081321Z 28002KT 11/M06 A2988 RMK A01 T01051056  RH  032%=      5-min Rain = 0
KLA1 081322Z 28002KT 11/M06 A2988 RMK A01 T01051056  RH  032%=      5-min Rain = 0
KLA1 081323Z 27003KT 11/M06 A2988 RMK A01 T01061058  RH  031%=      5-min Rain = 0
KLA1 081324Z 28002KT 11/M06 A2988 RMK A01 T01051059  RH  031%=      5-min Rain = 0
KLA1 081325Z 28002KT 11/M06 A2988 RMK A01 T01051056  RH  032%=      5-min Rain = 0
KLA1 081326Z 27001KT 11/M05 A2988 RMK A01 T01051054  RH  032%=      5-min Rain = 0
KLA1 081327Z 28002KT 11/M06 A2988 RMK A01 T01051055  RH  032%=      5-min Rain = 0
KLA1 081328Z 29002KT 11/M06 A2988 RMK A01 T01051057  RH  031%=      5-min Rain = 0
KLA1 081329Z 29003KT 11/M06 A2988 RMK A01 T01051058  RH  031%=      5-min Rain = 0
KLA1 081330Z 29002KT 11/M06 A2988 RMK A01 T01061060  RH  031%=      5-min Rain = 0
KLA1 081331Z 29003KT 11/M06 A2988 RMK A01 T01061060  RH  031%=      5-min Rain = 0
KLA1 081332Z 27002KT 11/M06 A2988 RMK A01 T01071059  RH  031%=      5-min Rain = 0
KLA1 081333Z 28002KT 11/M06 A2988 RMK A01 T01081058  RH  031%=      5-min Rain = 0
KLA1 081334Z 29003KT 11/M06 A2988 RMK A01 T01081059  RH  030%=      5-min Rain = 0
KLA1 081335Z 29003KT 11/M06 A2988 RMK A01 T01091059  RH  030%=      5-min Rain = 0
KLA1 081336Z 28003KT 11/M06 A2988 RMK A01 T01091059  RH  030%=      5-min Rain = 0
KLA1 081337Z 27002KT 11/M06 A2988 RMK A01 T01091059  RH  030%=      5-min Rain = 0
KLA1 081338Z 28002KT 11/M06 A2988 RMK A01 T01101058  RH  030%=      5-min Rain = 0
KLA1 081339Z 28002KT 11/M06 A2989 RMK A01 T01101058  RH  030%=      5-min Rain = 0
KLA1 081340Z 28001KT 11/M06 A2989 RMK A01 T01101056  RH  031%=      5-min Rain = 0
KLA1 081341Z 27002KT 11/M06 A2989 RMK A01 T01101055  RH  031%=      5-min Rain = 0
KLA1 081342Z 27002KT 11/M05 A2989 RMK A01 T01111054  RH  031%=      5-min Rain = 0
KLA1 081343Z 28002KT 11/M05 A2989 RMK A01 T01121054  RH  031%=      5-min Rain = 0
KLA1 081344Z 28002KT 11/M05 A2989 RMK A01 T01131054  RH  031%=      5-min Rain = 0
KLA1 081345Z 28001KT 11/M06 A2989 RMK A01 T01131055  RH  030%=      5-min Rain = 0
KLA1 081346Z 27002KT 11/M05 A2989 RMK A01 T01131054  RH  031%=      5-min Rain = 0
KLA1 081347Z 27002KT 11/M05 A2989 RMK A01 T01141053  RH  031%=      5-min Rain = 0
KLA1 081348Z 29003KT 11/M05 A2989 RMK A01 T01141054  RH  030%=      5-min Rain = 0
KLA1 081349Z 29002KT 11/M06 A2989 RMK A01 T01141055  RH  030%=      5-min Rain = 0
KLA1 081350Z 29002KT 12/M06 A2989 RMK A01 T01151055  RH  030%=      5-min Rain = 0
KLA1 081351Z 29002KT 12/M05 A2989 RMK A01 T01151053  RH  030%=      5-min Rain = 0
KLA1 081352Z 28002KT 12/M05 A2989 RMK A01 T01171051  RH  030%=      5-min Rain = 0
KLA1 081353Z 29001KT 12/M05 A2989 RMK A01 T01191051  RH  030%=      5-min Rain = 0
KLA1 081354Z 30002KT 12/M05 A2989 RMK A01 T01201052  RH  030%=      5-min Rain = 0
KLA1 081355Z 31001KT 12/M05 A2989 RMK A01 T01211052  RH  030%=      5-min Rain = 0
KLA1 081356Z 00000KT 12/M05 A2989 RMK A01 T01221052  RH  029%=      5-min Rain = 0
KLA1 081357Z 27000KT 12/M05 A2989 RMK A01 T01231053  RH  029%=      5-min Rain = 0
KLA1 081358Z 27001KT 13/M05 A2989 RMK A01 T01251053  RH  029%=      5-min Rain = 0
KLA1 081359Z 27001KT 13/M05 A2989 RMK A01 T01251052  RH  029%=      5-min Rain = 0
KLA1 081400Z 26001KT 13/M05 A2989 RMK A01 T01251051  RH  029%=      5-min Rain = 0
KLA1 081401Z 27001KT 13/M05 A2989 RMK A01 T01261050  RH  029%=      5-min Rain = 0
KLA1 081402Z 28001KT 13/M05 A2989 RMK A01 T01281049  RH  029%=      5-min Rain = 0
KLA1 081403Z 25002KT 13/M05 A2989 RMK A01 T01301051  RH  028%=      5-min Rain = 0
KLA1 081404Z 24002KT 13/M05 A2989 RMK A01 T01311050  RH  028%=      5-min Rain = 0
KLA1 081405Z 25001KT 13/M05 A2989 RMK A01 T01321046  RH  029%=      5-min Rain = 0
KLA1 081406Z 23001KT 13/M05 A2989 RMK A01 T01341045  RH  029%=      5-min Rain = 0
KLA1 081407Z 23000KT 14/M05 A2989 RMK A01 T01361045  RH  028%=      5-min Rain = 0
KLA1 081408Z 24000KT 14/M05 A2989 RMK A01 T01381045  RH  028%=      5-min Rain = 0
KLA1 081409Z 26001KT 14/M05 A2989 RMK A01 T01391046  RH  028%=      5-min Rain = 0
KLA1 081410Z 26001KT 14/M04 A2989 RMK A01 T01401044  RH  028%=      5-min Rain = 0
KLA1 081411Z 26000KT 14/M04 A2989 RMK A01 T01411042  RH  028%=      5-min Rain = 0
KLA1 081412Z 00000KT 14/M04 A2989 RMK A01 T01441040  RH  028%=      5-min Rain = 0
KLA1 081413Z 27000KT 15/M04 A2989 RMK A01 T01461040  RH  027%=      5-min Rain = 0
KLA1 081414Z 24001KT 15/M04 A2989 RMK A01 T01471040  RH  027%=      5-min Rain = 0
KLA1 081415Z 22000KT 15/M04 A2989 RMK A01 T01491038  RH  027%=      5-min Rain = 0
KLA1 081416Z 00000KT 15/M04 A2989 RMK A01 T01501036  RH  027%=      5-min Rain = 0
KLA1 081417Z 18000KT 15/M03 A2989 RMK A01 T01531032  RH  028%=      5-min Rain = 0
KLA1 081418Z 21001KT 16/M03 A2989 RMK A01 T01571030  RH  028%=      5-min Rain = 0
KLA1 081419Z 23001KT 16/M03 A2989 RMK A01 T01591030  RH  027%=      5-min Rain = 0
KLA1 081420Z 24001KT 16/M03 A2989 RMK A01 T01591030  RH  027%=      5-min Rain = 0
KLA1 081421Z 24000KT 16/M03 A2989 RMK A01 T01601031  RH  027%=      5-min Rain = 0
KLA1 081422Z 00000KT 16/M03 A2989 RMK A01 T01611031  RH  027%=      5-min Rain = 0
KLA1 081423Z 24000KT 16/M03 A2989 RMK A01 T01621028  RH  027%=      5-min Rain = 0
KLA1 081424Z 23000KT 16/M03 A2989 RMK A01 T01631028  RH  027%=      5-min Rain = 0
KLA1 081425Z 18001KT 16/M03 A2989 RMK A01 T01641026  RH  027%=      5-min Rain = 0
KLA1 081426Z 14001KT 17/M02 A2989 RMK A01 T01661023  RH  028%=      5-min Rain = 0
KLA1 081427Z 11001KT 17/M01 A2989 RMK A01 T01681013  RH  029%=      5-min Rain = 0
KLA1 081428Z 16002KT 17/M01 A2989 RMK A01 T01711011  RH  029%=      5-min Rain = 0
KLA1 081429Z 13003KT 17/M01 A2989 RMK A01 T01741005  RH  030%=      5-min Rain = 0
KLA1 081430Z 13003KT 18/00 A2989 RMK A01 T01770000  RH  030%=      5-min Rain = 0
KLA1 081431Z 13002KT 18/M00 A2989 RMK A01 T01801001  RH  030%=      5-min Rain = 0
KLA1 081432Z 12002KT 18/M00 A2989 RMK A01 T01821002  RH  029%=      5-min Rain = 0
KLA1 081433Z 12003KT 18/01 A2989 RMK A01 T01840006  RH  030%=      5-min Rain = 0
KLA1 081434Z 13004KT 19/01 A2989 RMK A01 T01870014  RH  032%=      5-min Rain = 0
KLA1 081435Z 13006KT 19/02 A2989 RMK A01 T01890017  RH  032%=      5-min Rain = 0
KLA1 081436Z 12005KT 19/02 A2989 RMK A01 T01900020  RH  032%=      5-min Rain = 0
KLA1 081437Z 13004KT 19/02 A2988 RMK A01 T01900020  RH  032%=      5-min Rain = 0
KLA1 081438Z 11004KT 19/02 A2988 RMK A01 T01910021  RH  032%=      5-min Rain = 0
KLA1 081439Z 11005KT 19/02 A2988 RMK A01 T01930023  RH  032%=      5-min Rain = 0
KLA1 081440Z 11005KT 19/02 A2988 RMK A01 T01940024  RH  032%=      5-min Rain = 0
KLA1 081441Z 12006KT 19/02 A2988 RMK A01 T01940024  RH  032%=      5-min Rain = 0
KLA1 081442Z 11006KT 20/02 A2988 RMK A01 T01950024  RH  032%=      5-min Rain = 0
KLA1 081443Z 11005KT 20/03 A2989 RMK A01 T01950025  RH  032%=      5-min Rain = 0
KLA1 081444Z 10007KT 20/03 A2989 RMK A01 T01950025  RH  032%=      5-min Rain = 0
KLA1 081445Z 11004KT 20/03 A2989 RMK A01 T01950025  RH  032%=      5-min Rain = 0
KLA1 081446Z 12005KT 20/03 A2989 RMK A01 T01950027  RH  033%=      5-min Rain = 0
KLA1 081447Z 13007KT 20/03 A2989 RMK A01 T01960026  RH  032%=      5-min Rain = 0
KLA1 081448Z 13004KT 20/03 A2989 RMK A01 T01960026  RH  032%=      5-min Rain = 0
KLA1 081449Z 11003KT 20/03 A2989 RMK A01 T01970027  RH  032%=      5-min Rain = 0
KLA1 081450Z 12005KT 20/03 A2989 RMK A01 T01990027  RH  032%=      5-min Rain = 0
KLA1 081451Z 12006KT 20/03 A2989 RMK A01 T01990028  RH  032%=      5-min Rain = 0
KLA1 081452Z 13005KT 20/03 A2989 RMK A01 T02000027  RH  032%=      5-min Rain = 0
KLA1 081453Z 12005KT 20/03 A2989 RMK A01 T01990027  RH  032%=      5-min Rain = 0
KLA1 081454Z 12005KT 20/03 A2989 RMK A01 T01990027  RH  032%=      5-min Rain = 0
KLA1 081455Z 13004KT 20/03 A2989 RMK A01 T01990027  RH  032%=      5-min Rain = 0
KLA1 081456Z 12004KT 20/03 A2989 RMK A01 T01990027  RH  032%=      5-min Rain = 0
KLA1 081457Z 11004KT 20/03 A2989 RMK A01 T01990027  RH  032%=      5-min Rain = 0
KLA1 081458Z 16003KT 20/03 A2989 RMK A01 T02000028  RH  032%=      5-min Rain = 0
KLA1 081459Z 13003KT 20/03 A2989 RMK A01 T02010025  RH  031%=      5-min Rain = 0
KLA1 081500Z 12005KT 20/03 A2989 RMK A01 T02020027  RH  031%=      5-min Rain = 0
KLA1 081501Z 12005KT 20/03 A2989 RMK A01 T02020026  RH  031%=      5-min Rain = 0
KLA1 081502Z 11005KT 20/03 A2989 RMK A01 T02020028  RH  032%=      5-min Rain = 0
KLA1 081503Z 10004KT 20/03 A2989 RMK A01 T02020027  RH  031%=      5-min Rain = 0
KLA1 081504Z 11002KT 20/03 A2989 RMK A01 T02030027  RH  031%=      5-min Rain = 0
KLA1 081505Z 13002KT 20/03 A2989 RMK A01 T02040028  RH  031%=      5-min Rain = 0
KLA1 081506Z 15001KT 21/03 A2989 RMK A01 T02060028  RH  031%=      5-min Rain = 0
KLA1 081507Z 16002KT 21/03 A2989 RMK A01 T02070026  RH  030%=      5-min Rain = 0
KLA1 081508Z 14002KT 21/03 A2989 RMK A01 T02070027  RH  030%=      5-min Rain = 0
KLA1 081509Z 12003KT 21/03 A2989 RMK A01 T02080028  RH  030%=      5-min Rain = 0
KLA1 081510Z 14003KT 21/03 A2989 RMK A01 T02090028  RH  030%=      5-min Rain = 0
KLA1 081511Z 12002KT 21/03 A2989 RMK A01 T02080027  RH  030%=      5-min Rain = 0
KLA1 081512Z 15002KT 21/03 A2989 RMK A01 T02080028  RH  030%=      5-min Rain = 0
KLA1 081513Z 19000KT 21/03 A2989 RMK A01 T02080028  RH  030%=      5-min Rain = 0
KLA1 081514Z 20000KT 21/03 A2989 RMK A01 T02090027  RH  030%=      5-min Rain = 0
KLA1 081515Z 19001KT 21/03 A2989 RMK A01 T02100028  RH  030%=      5-min Rain = 0
KLA1 081516Z 22002KT 21/03 A2989 RMK A01 T02110028  RH  030%=      5-min Rain = 0
KLA1 081517Z 24001KT 21/03 A2989 RMK A01 T02120027  RH  029%=      5-min Rain = 0
KLA1 081518Z 19000KT 21/03 A2989 RMK A01 T02120026  RH  029%=      5-min Rain = 0
KLA1 081519Z 14001KT 21/03 A2989 RMK A01 T02130028  RH  029%=      5-min Rain = 0
KLA1 081520Z 15002KT 22/03 A2989 RMK A01 T02150028  RH  029%=      5-min Rain = 0
KLA1 081521Z 14002KT 22/03 A2989 RMK A01 T02160028  RH  029%=      5-min Rain = 0
KLA1 081522Z 10003KT 22/03 A2989 RMK A01 T02170030  RH  029%=      5-min Rain = 0
KLA1 081523Z 12003KT 22/03 A2989 RMK A01 T02160028  RH  029%=      5-min Rain = 0
KLA1 081524Z 15004KT 22/03 A2989 RMK A01 T02170029  RH  029%=      5-min Rain = 0
KLA1 081525Z 17003KT 22/03 A2989 RMK A01 T02180028  RH  029%=      5-min Rain = 0
KLA1 081526Z 15002KT 22/03 A2989 RMK A01 T02170028  RH  029%=      5-min Rain = 0
KLA1 081527Z 13003KT 22/03 A2989 RMK A01 T02170028  RH  029%=      5-min Rain = 0
KLA1 081528Z 14001KT 22/03 A2989 RMK A01 T02190028  RH  029%=      5-min Rain = 0
KLA1 081529Z 11000KT 22/03 A2989 RMK A01 T02190026  RH  028%=      5-min Rain = 0
KLA1 081530Z 00000KT 22/03 A2989 RMK A01 T02190027  RH  028%=      5-min Rain = 0
KLA1 081531Z 30001KT 22/03 A2989 RMK A01 T02200028  RH  028%=      5-min Rain = 0
KLA1 081532Z 28002KT 22/03 A2989 RMK A01 T02200029  RH  028%=      5-min Rain = 0
KLA1 081533Z 30003KT 22/03 A2989 RMK A01 T02220031  RH  028%=      5-min Rain = 0
KLA1 081534Z 30004KT 22/03 A2989 RMK A01 T02240030  RH  028%=      5-min Rain = 0
KLA1 081535Z 30003KT 23/03 A2989 RMK A01 T02260029  RH  027%=      5-min Rain = 0
KLA1 081536Z 29002KT 23/03 A2989 RMK A01 T02260028  RH  027%=      5-min Rain = 0
KLA1 081537Z 28002KT 23/03 A2989 RMK A01 T02260028  RH  027%=      5-min Rain = 0
KLA1 081538Z 28003KT 23/03 A2989 RMK A01 T02250028  RH  027%=      5-min Rain = 0
KLA1 081539Z 28003KT 23/03 A2989 RMK A01 T02250028  RH  027%=      5-min Rain = 0
KLA1 081540Z 32002KT 23/03 A2989 RMK A01 T02250027  RH  027%=      5-min Rain = 0
KLA1 081541Z 33000KT 22/03 A2989 RMK A01 T02240026  RH  027%=      5-min Rain = 0
KLA1 081542Z 32001KT 22/03 A2989 RMK A01 T02240026  RH  027%=      5-min Rain = 0
KLA1 081543Z 25001KT 23/03 A2989 RMK A01 T02250027  RH  027%=      5-min Rain = 0
KLA1 081544Z 19000KT 23/03 A2989 RMK A01 T02260029  RH  027%=      5-min Rain = 0
KLA1 081545Z 07001KT 23/03 A2989 RMK A01 T02270028  RH  027%=      5-min Rain = 0
KLA1 081546Z 06002KT 23/03 A2989 RMK A01 T02280028  RH  027%=      5-min Rain = 0
KLA1 081547Z 11001KT 23/03 A2989 RMK A01 T02290027  RH  027%=      5-min Rain = 0
KLA1 081548Z 22001KT 23/03 A2989 RMK A01 T02300030  RH  027%=      5-min Rain = 0
KLA1 081549Z 22003KT 23/03 A2989 RMK A01 T02320028  RH  026%=      5-min Rain = 0
KLA1 081550Z 22001KT 23/03 A2989 RMK A01 T02320028  RH  026%=      5-min Rain = 0
KLA1 081551Z 21005KT 23/03 A2988 RMK A01 T02320030  RH  027%=      5-min Rain = 0
KLA1 081552Z 20003KT 23/03 A2988 RMK A01 T02320029  RH  026%=      5-min Rain = 0
KLA1 081553Z 21001KT 23/03 A2988 RMK A01 T02310028  RH  027%=      5-min Rain = 0
KLA1 081554Z 24001KT 23/03 A2988 RMK A01 T02310027  RH  026%=      5-min Rain = 0
KLA1 081555Z 22000KT 23/03 A2988 RMK A01 T02310027  RH  026%=      5-min Rain = 0
KLA1 081556Z 20000KT 23/03 A2988 RMK A01 T02320027  RH  026%=      5-min Rain = 0
KLA1 081557Z 15001KT 23/03 A2988 RMK A01 T02340029  RH  026%=      5-min Rain = 0
KLA1 081558Z 18001KT 24/03 A2988 RMK A01 T02370031  RH  026%=      5-min Rain = 0
KLA1 081559Z 23002KT 24/03 A2988 RMK A01 T02400032  RH  026%=      5-min Rain = 0
KLA1 081600Z 22004KT 24/03 A2988 RMK A01 T02420030  RH  025%=      5-min Rain = 0
KLA1 081601Z 23004KT 24/03 A2988 RMK A01 T02420030  RH  025%=      5-min Rain = 0
KLA1 081602Z 22003KT 24/03 A2988 RMK A01 T02400028  RH  025%=      5-min Rain = 0
KLA1 081603Z 22003KT 24/03 A2988 RMK A01 T02400029  RH  025%=      5-min Rain = 0
KLA1 081604Z 18002KT 24/03 A2988 RMK A01 T02390028  RH  025%=      5-min Rain = 0
KLA1 081605Z 20001KT 24/03 A2988 RMK A01 T02390028  RH  025%=      5-min Rain = 0
KLA1 081606Z 17000KT 24/03 A2988 RMK A01 T02390027  RH  025%=      5-min Rain = 0
KLA1 081607Z 16002KT 24/03 A2988 RMK A01 T02400029  RH  025%=      5-min Rain = 0
KLA1 081608Z 09002KT 24/03 A2988 RMK A01 T02420029  RH  025%=      5-min Rain = 0
KLA1 081609Z 11003KT 24/03 A2988 RMK A01 T02430030  RH  025%=      5-min Rain = 0
KLA1 081610Z 17003KT 24/03 A2988 RMK A01 T02440030  RH  025%=      5-min Rain = 0
KLA1 081611Z 21001KT 25/03 A2988 RMK A01 T02450030  RH  025%=      5-min Rain = 0
KLA1 081612Z 19002KT 25/03 A2988 RMK A01 T02460029  RH  024%=      5-min Rain = 0
KLA1 081613Z 15004KT 25/03 A2987 RMK A01 T02460029  RH  024%=      5-min Rain = 0
KLA1 081614Z 16005KT 25/03 A2987 RMK A01 T02470029  RH  024%=      5-min Rain = 0
KLA1 081615Z 16003KT 25/03 A2987 RMK A01 T02480027  RH  024%=      5-min Rain = 0
KLA1 081616Z 18004KT 25/03 A2987 RMK A01 T02490028  RH  024%=      5-min Rain = 0
KLA1 081617Z 18005KT 25/03 A2987 RMK A01 T02480027  RH  024%=      5-min Rain = 0
KLA1 081618Z 17004KT 25/03 A2987 RMK A01 T02480027  RH  024%=      5-min Rain = 0
KLA1 081619Z 15004KT 25/03 A2987 RMK A01 T02480028  RH  024%=      5-min Rain = 0
KLA1 081620Z 15004KT 25/03 A2987 RMK A01 T02510025  RH  023%=      5-min Rain = 0
KLA1 081621Z 16003KT 25/03 A2987 RMK A01 T02530027  RH  023%=      5-min Rain = 0
KLA1 081622Z 14002KT 25/03 A2987 RMK A01 T02540029  RH  023%=      5-min Rain = 0
KLA1 081623Z 18004KT 26/03 A2987 RMK A01 T02570026  RH  022%=      5-min Rain = 0
KLA1 081624Z 19004KT 26/01 A2987 RMK A01 T02590014  RH  020%=      5-min Rain = 0
KLA1 081625Z 21004KT 26/01 A2987 RMK A01 T02590007  RH  019%=      5-min Rain = 0
KLA1 081626Z 22001KT 26/01 A2987 RMK A01 T02580006  RH  019%=      5-min Rain = 0
KLA1 081627Z 18002KT 26/01 A2987 RMK A01 T02590005  RH  019%=      5-min Rain = 0
KLA1 081628Z 20004KT 26/00 A2987 RMK A01 T02600001  RH  018%=      5-min Rain = 0
KLA1 081629Z 22007KT 26/01 A2987 RMK A01 T02630005  RH  018%=      5-min Rain = 0
KLA1 081630Z 22005KT 27/00 A2987 RMK A01 T02650000  RH  018%=      5-min Rain = 0
KLA1 081631Z 23004KT 26/M00 A2987 RMK A01 T02641004  RH  017%=      5-min Rain = 0
KLA1 081632Z 26003KT 26/M00 A2987 RMK A01 T02631004  RH  017%=      5-min Rain = 0
KLA1 081633Z 26004KT 26/M00 A2987 RMK A01 T02631002  RH  018%=      5-min Rain = 0
KLA1 081634Z 27003KT 26/00 A2987 RMK A01 T02640001  RH  018%=      5-min Rain = 0
KLA1 081635Z 28002KT 27/00 A2987 RMK A01 T026500-0  RH  018%=      5-min Rain = 0
KLA1 081636Z 24000KT 27/M00 A2987 RMK A01 T02671004  RH  017%=      5-min Rain = 0
KLA1 081637Z 31000KT 27/M00 A2987 RMK A01 T02691004  RH  017%=      5-min Rain = 0
KLA1 081638Z 18002KT 27/M00 A2987 RMK A01 T02711002  RH  017%=      5-min Rain = 0
KLA1 081639Z 18003KT 27/M01 A2987 RMK A01 T02721006  RH  016%=      5-min Rain = 0
KLA1 081640Z 22004KT 27/M01 A2987 RMK A01 T02711006  RH  016%=      5-min Rain = 0
KLA1 081641Z 21005KT 27/M01 A2987 RMK A01 T02731007  RH  016%=      5-min Rain = 0
KLA1 081642Z 20004KT 27/M01 A2987 RMK A01 T02731013  RH  015%=      5-min Rain = 0
KLA1 081643Z 20005KT 27/M01 A2987 RMK A01 T02711014  RH  015%=      5-min Rain = 0
KLA1 081644Z 20006KT 27/M01 A2987 RMK A01 T02711012  RH  016%=      5-min Rain = 0
KLA1 081645Z 19003KT 27/M01 A2987 RMK A01 T02701013  RH  016%=      5-min Rain = 0
KLA1 081646Z 17002KT 27/M02 A2987 RMK A01 T02691015  RH  015%=      5-min Rain = 0
KLA1 081647Z 16002KT 27/M01 A2987 RMK A01 T02701012  RH  016%=      5-min Rain = 0
KLA1 081648Z 11000KT 27/M01 A2987 RMK A01 T02701014  RH  015%=      5-min Rain = 0
KLA1 081649Z 26000KT 27/M01 A2987 RMK A01 T02721011  RH  016%=      5-min Rain = 0
KLA1 081650Z 26002KT 28/M02 A2987 RMK A01 T02751017  RH  015%=      5-min Rain = 0
KLA1 081651Z 30002KT 28/M03 A2987 RMK A01 T02761029  RH  013%=      5-min Rain = 0
KLA1 081652Z 28006KT 28/M03 A2987 RMK A01 T02801032  RH  013%=      5-min Rain = 0
KLA1 081653Z 29002KT 28/M03 A2987 RMK A01 T02811032  RH  013%=      5-min Rain = 0
KLA1 081654Z 29004KT 28/M03 A2987 RMK A01 T02801030  RH  013%=      5-min Rain = 0
KLA1 081655Z 26003KT 28/M03 A2987 RMK A01 T02801030  RH  013%=      5-min Rain = 0
KLA1 081656Z 26003KT 28/M03 A2987 RMK A01 T02791030  RH  013%=      5-min Rain = 0
KLA1 081657Z 30005KT 28/M03 A2987 RMK A01 T02801025  RH  013%=      5-min Rain = 0
KLA1 081658Z 29007KT 28/M03 A2987 RMK A01 T02811031  RH  013%=      5-min Rain = 0
KLA1 081659Z 27004KT 28/M03 A2987 RMK A01 T02821030  RH  013%=      5-min Rain = 0
KLA1 081700Z 27005KT 28/M03 A2987 RMK A01 T02801027  RH  013%=      5-min Rain = 0
KLA1 081701Z 27007KT 28/M03 A2987 RMK A01 T02821033  RH  013%=      5-min Rain = 0
KLA1 081702Z 27006KT 28/M04 A2987 RMK A01 T02811035  RH  012%=      5-min Rain = 0
KLA1 081703Z 28005KT 28/M03 A2987 RMK A01 T02821034  RH  012%=      5-min Rain = 0
KLA1 081704Z 28004KT 28/M04 A2987 RMK A01 T02811036  RH  012%=      5-min Rain = 0
KLA1 081705Z 30003KT 28/M03 A2986 RMK A01 T02801033  RH  013%=      5-min Rain = 0
KLA1 081706Z 32003KT 28/M04 A2986 RMK A01 T02801040  RH  012%=      5-min Rain = 0
KLA1 081707Z 29002KT 28/M04 A2986 RMK A01 T02791042  RH  012%=      5-min Rain = 0
KLA1 081708Z 24003KT 28/M04 A2986 RMK A01 T02801041  RH  012%=      5-min Rain = 0
KLA1 081709Z 29003KT 28/M04 A2986 RMK A01 T02801042  RH  012%=      5-min Rain = 0
KLA1 081710Z 29008KT 28/M05 A2986 RMK A01 T02821047  RH  011%=      5-min Rain = 0
KLA1 081711Z 30005KT 28/M06 A2986 RMK A01 T02841056  RH  010%=      5-min Rain = 0
KLA1 081712Z 30006KT 29/M05 A2986 RMK A01 T02851054  RH  011%=      5-min Rain = 0
KLA1 081713Z 31007KT 29/M05 A2986 RMK A01 T02861054  RH  010%=      5-min Rain = 0
KLA1 081714Z 30006KT 29/M05 A2986 RMK A01 T02861054  RH  010%=      5-min Rain = 0
KLA1 081715Z 30006KT 29/M05 A2986 RMK A01 T02861053  RH  011%=      5-min Rain = 0
KLA1 081716Z 27003KT 29/M05 A2986 RMK A01 T02861052  RH  011%=      5-min Rain = 0
KLA1 081717Z 27005KT 29/M05 A2986 RMK A01 T02871054  RH  010%=      5-min Rain = 0
KLA1 081718Z 25005KT 29/M05 A2986 RMK A01 T02881053  RH  010%=      5-min Rain = 0
KLA1 081719Z 23005KT 29/M05 A2985 RMK A01 T02901050  RH  011%=      5-min Rain = 0
KLA1 081720Z 28004KT 29/M05 A2986 RMK A01 T02921053  RH  010%=      5-min Rain = 0
KLA1 081721Z 29006KT 29/M06 A2985 RMK A01 T02931059  RH  010%=      5-min Rain = 0
KLA1 081722Z 30005KT 29/M06 A2985 RMK A01 T02941060  RH  010%=      5-min Rain = 0
KLA1 081723Z 29006KT 29/M06 A2985 RMK A01 T02921058  RH  010%=      5-min Rain = 0
KLA1 081724Z 27006KT 29/M06 A2985 RMK A01 T02921058  RH  010%=      5-min Rain = 0
KLA1 081725Z 25007KT 29/M07 A2985 RMK A01 T02911065  RH  009%=      5-min Rain = 0
KLA1 081726Z 25009KT 29/M06 A2985 RMK A01 T02901061  RH  010%=      5-min Rain = 0
KLA1 081727Z 24008KT 29/M07 A2985 RMK A01 T02931065  RH  009%=      5-min Rain = 0
KLA1 081728Z 25008KT 29/M07 A2985 RMK A01 T02921066  RH  009%=      5-min Rain = 0
KLA1 081729Z 26006KT 29/M06 A2985 RMK A01 T02911062  RH  010%=      5-min Rain = 0
KLA1 081730Z 26005KT 29/M06 A2985 RMK A01 T02901061  RH  010%=      5-min Rain = 0
KLA1 081731Z 27005KT 29/M06 A2985 RMK A01 T02901059  RH  010%=      5-min Rain = 0
KLA1 081732Z 26002KT 29/M06 A2985 RMK A01 T02911058  RH  010%=      5-min Rain = 0
KLA1 081733Z 27005KT 29/M06 A2985 RMK A01 T02931057  RH  010%=      5-min Rain = 0
KLA1 081734Z 23008KT 30/M06 A2985 RMK A01 T02951058  RH  010%=      5-min Rain = 0
KLA1 081735Z 24006KT 30/M06 A2985 RMK A01 T02981058  RH  009%=      5-min Rain = 0
KLA1 081736Z 22006KT 30/M06 A2985 RMK A01 T03001060  RH  009%=      5-min Rain = 0
KLA1 081737Z 23009KT 30/M06 A2985 RMK A01 T03011060  RH  009%=      5-min Rain = 0
KLA1 081738Z 23009KT 30/M07 A2985 RMK A01 T03041068  RH  008%=      5-min Rain = 0
KLA1 081739Z 24008KT 30/M08 A2985 RMK A01 T03021075  RH  008%=      5-min Rain = 0
KLA1 081740Z 25009KT 30/M07 A2985 RMK A01 T03001071  RH  009%=      5-min Rain = 0
KLA1 081741Z 26006KT 30/M08 A2985 RMK A01 T02981076  RH  008%=      5-min Rain = 0
KLA1 081742Z 26008KT 30/M07 A2985 RMK A01 T02981067  RH  009%=      5-min Rain = 0
KLA1 081743Z 24009KT 30/M07 A2984 RMK A01 T03001071  RH  008%=      5-min Rain = 0
KLA1 081744Z 25011KT 30/M07 A2984 RMK A01 T02981070  RH  009%=      5-min Rain = 0
KLA1 081745Z 26009KT 30/M07 A2984 RMK A01 T02981071  RH  009%=      5-min Rain = 0
KLA1 081746Z 27007KT 30/M07 A2984 RMK A01 T02971070  RH  009%=      5-min Rain = 0
KLA1 081747Z 28007KT 30/M07 A2984 RMK A01 T02971069  RH  009%=      5-min Rain = 0
KLA1 081748Z 25006KT 30/M07 A2984 RMK A01 T02991065  RH  009%=      5-min Rain = 0
KLA1 081749Z 24008KT 30/M07 A2984 RMK A01 T03011069  RH  009%=      5-min Rain = 0
KLA1 081750Z 24008KT 30/M07 A2984 RMK A01 T03021070  RH  008%=      5-min Rain = 0
KLA1 081751Z 27007KT 30/M07 A2984 RMK A01 T03021067  RH  009%=      5-min Rain = 0
KLA1 081752Z 28006KT 30/M07 A2984 RMK A01 T03021066  RH  009%=      5-min Rain = 0
KLA1 081753Z 28007KT 30/M07 A2984 RMK A01 T03031066  RH  009%=      5-min Rain = 0
KLA1 081754Z 28005KT 30/M07 A2984 RMK A01 T03031069  RH  008%=      5-min Rain = 0
KLA1 081755Z 28006G11KT 30/M07 A2984 RMK A01 T03041068  RH  009%=      5-min Rain = 0
KLA1 081756Z 29008KT 31/M07 A2984 RMK A01 T03051068  RH  008%=      5-min Rain = 0
KLA1 081757Z 28008G14KT 31/M07 A2984 RMK A01 T03061069  RH  008%=      5-min Rain = 0
KLA1 081758Z 23008G13KT 31/M07 A2984 RMK A01 T03071067  RH  008%=      5-min Rain = 0
KLA1 081759Z 26007KT 31/M07 A2984 RMK A01 T03071069  RH  008%=      5-min Rain = 0
KLA1 081800Z 25005KT 31/M07 A2984 RMK A01 T03071069  RH  008%=      5-min Rain = 0
KLA1 081801Z 22005KT 31/M07 A2984 RMK A01 T03051068  RH  008%=      5-min Rain = 0
KLA1 081802Z 20008KT 31/M06 A2984 RMK A01 T03071064  RH  009%=      5-min Rain = 0
KLA1 081803Z 21007KT 31/M07 A2984 RMK A01 T03101066  RH  008%=      5-min Rain = 0
KLA1 081804Z 24004KT 31/M07 A2984 RMK A01 T03101069  RH  008%=      5-min Rain = 0
KLA1 081805Z 26007KT 31/M07 A2984 RMK A01 T03101069  RH  008%=      5-min Rain = 0
KLA1 081806Z 30008KT 31/M07 A2983 RMK A01 T03111069  RH  008%=      5-min Rain = 0
KLA1 081807Z 30006KT 31/M08 A2983 RMK A01 T03111076  RH  008%=      5-min Rain = 0
KLA1 081808Z 32002KT 31/M08 A2983 RMK A01 T03101078  RH  008%=      5-min Rain = 0
KLA1 081809Z 29003KT 31/M07 A2983 RMK A01 T03091073  RH  008%=      5-min Rain = 0
KLA1 081810Z 27005KT 31/M08 A2983 RMK A01 T03101077  RH  008%=      5-min Rain = 0
KLA1 081811Z 23007KT 31/M08 A2983 RMK A01 T03101080  RH  007%=      5-min Rain = 0
KLA1 081812Z 25008KT 31/M08 A2983 RMK A01 T03101079  RH  008%=      5-min Rain = 0
KLA1 081813Z 28009KT 31/M07 A2983 RMK A01 T03141074  RH  008%=      5-min Rain = 0
KLA1 081814Z 29007KT 32/M08 A2983 RMK A01 T03171083  RH  007%=      5-min Rain = 0
KLA1 081815Z 26008KT 32/M08 A2983 RMK A01 T03171081  RH  007%=      5-min Rain = 0
KLA1 081816Z 22006KT 32/M08 A2983 RMK A01 T03171082  RH  007%=      5-min Rain = 0
KLA1 081817Z 25006KT 32/M09 A2983 RMK A01 T03161085  RH  007%=      5-min Rain = 0
KLA1 081818Z 26004KT 31/M08 A2983 RMK A01 T03141084  RH  007%=      5-min Rain = 0
KLA1 081819Z 25007KT 31/M09 A2983 RMK A01 T03141085  RH  007%=      5-min Rain = 0
KLA1 081820Z 28005KT 31/M09 A2982 RMK A01 T03141091  RH  007%=      5-min Rain = 0
KLA1 081821Z 23005KT 31/M09 A2982 RMK A01 T03141088  RH  007%=      5-min Rain = 0
KLA1 081822Z 22009KT 32/M09 A2982 RMK A01 T03151091  RH  007%=      5-min Rain = 0
KLA1 081823Z 23016G21KT 32/M09 A2982 RMK A01 T03181088  RH  007%=      5-min Rain = 0
KLA1 081824Z 24015KT 32/M09 A2982 RMK A01 T03211093  RH  006%=      5-min Rain = 0
KLA1 081825Z 24010KT 32/M10 A2982 RMK A01 T03221096  RH  006%=      5-min Rain = 0
KLA1 081826Z 23006KT 32/M10 A2982 RMK A01 T03211095  RH  006%=      5-min Rain = 0
KLA1 081827Z 22006G11KT 32/M09 A2982 RMK A01 T03221091  RH  006%=      5-min Rain = 0
KLA1 081828Z 23009KT 32/M09 A2982 RMK A01 T03221090  RH  006%=      5-min Rain = 0
KLA1 081829Z 23006KT 32/M09 A2982 RMK A01 T03231091  RH  006%=      5-min Rain = 0
KLA1 081830Z 23005KT 32/M09 A2982 RMK A01 T03241087  RH  007%=      5-min Rain = 0
KLA1 081831Z 23005KT 33/M09 A2982 RMK A01 T03251092  RH  006%=      5-min Rain = 0
KLA1 081832Z 22003KT 32/M09 A2982 RMK A01 T03221092  RH  006%=      5-min Rain = 0
KLA1 081833Z 21005KT 32/M09 A2982 RMK A01 T03201089  RH  007%=      5-min Rain = 0
KLA1 081834Z 23008KT 32/M09 A2982 RMK A01 T03191087  RH  007%=      5-min Rain = 0
KLA1 081835Z 27009KT 32/M10 A2982 RMK A01 T03221104  RH  006%=      5-min Rain = 0
KLA1 081836Z 26010KT 32/M11 A2982 RMK A01 T03231114  RH  005%=      5-min Rain = 0
KLA1 081837Z 24010G15KT 32/M12 A2982 RMK A01 T03221116  RH  005%=      5-min Rain = 0
KLA1 081838Z 27008KT 32/M12 A2982 RMK A01 T03201116  RH  005%=      5-min Rain = 0
KLA1 081839Z 28008G13KT 32/M12 A2982 RMK A01 T03201115  RH  005%=      5-min Rain = 0
KLA1 081840Z 26010KT 32/M11 A2981 RMK A01 T03241108  RH  006%=      5-min Rain = 0
KLA1 081841Z 27012KT 33/M11 A2981 RMK A01 T03261113  RH  005%=      5-min Rain = 0
KLA1 081842Z 28010KT 33/M11 A2981 RMK A01 T03251113  RH  005%=      5-min Rain = 0
KLA1 081843Z 29013KT 33/M11 A2981 RMK A01 T03251111  RH  005%=      5-min Rain = 0
KLA1 081844Z 27009KT 33/M11 A2981 RMK A01 T03261111  RH  005%=      5-min Rain = 0
KLA1 081845Z 28009KT 33/M11 A2981 RMK A01 T03261112  RH  005%=      5-min Rain = 0
KLA1 081846Z 29009KT 33/M11 A2981 RMK A01 T03261113  RH  005%=      5-min Rain = 0
KLA1 081847Z 29008KT 33/M11 A2981 RMK A01 T03251114  RH  005%=      5-min Rain = 0
KLA1 081848Z 28007KT 33/M11 A2981 RMK A01 T03251113  RH  005%=      5-min Rain = 0
KLA1 081849Z 26008KT 32/M12 A2981 RMK A01 T03241115  RH  005%=      5-min Rain = 0
KLA1 081850Z 27006KT 32/M12 A2981 RMK A01 T03211115  RH  005%=      5-min Rain = 0
KLA1 081851Z 26005KT 32/M12 A2981 RMK A01 T03211119  RH  005%=      5-min Rain = 0
KLA1 081852Z 25006KT 32/M12 A2981 RMK A01 T03201122  RH  005%=      5-min Rain = 0
KLA1 081853Z 28007KT 32/M12 A2981 RMK A01 T03191115  RH  005%=      5-min Rain = 0
KLA1 081854Z 29011KT 32/M11 A2981 RMK A01 T03221109  RH  006%=      5-min Rain = 0
KLA1 081855Z 29006KT 32/M12 A298 RMK A01 T03241116  RH  005%=      5-min Rain = 0
KLA1 081856Z 24011KT 33/M11 A298 RMK A01 T03251110  RH  005%=      5-min Rain = 0
KLA1 081857Z 25008KT 33/M11 A2981 RMK A01 T03281108  RH  005%=      5-min Rain = 0
KLA1 081858Z 26008KT 33/M11 A2981 RMK A01 T03301108  RH  005%=      5-min Rain = 0
KLA1 081859Z 26009KT 33/M11 A2981 RMK A01 T03301111  RH  005%=      5-min Rain = 0
KLA1 081900Z 28010KT 33/M11 A2981 RMK A01 T03291110  RH  005%=      5-min Rain = 0
KLA1 081901Z 29009KT 33/M11 A2981 RMK A01 T03291112  RH  005%=      5-min Rain = 0
KLA1 081902Z 30008KT 33/M11 A298 RMK A01 T03301112  RH  005%=      5-min Rain = 0
KLA1 081903Z 29008KT 33/M11 A298 RMK A01 T03301108  RH  005%=      5-min Rain = 0
KLA1 081904Z 28009KT 33/M11 A298 RMK A01 T03321108  RH  005%=      5-min Rain = 0
KLA1 081905Z 29011G16KT 34/M11 A298 RMK A01 T03361105  RH  005%=      5-min Rain = 0
KLA1 081906Z 29014KT 34/M11 A298 RMK A01 T03361113  RH  005%=      5-min Rain = 0
KLA1 081907Z 29010KT 33/M12 A298 RMK A01 T03331115  RH  005%=      5-min Rain = 0
KLA1 081908Z 28008KT 33/M11 A298 RMK A01 T03321113  RH  005%=      5-min Rain = 0
KLA1 081909Z 27012KT 33/M11 A298 RMK A01 T03321112  RH  005%=      5-min Rain = 0
KLA1 081910Z 26012KT 33/M11 A298 RMK A01 T03321111  RH  005%=      5-min Rain = 0
KLA1 081911Z 26011KT 33/M12 A298 RMK A01 T03311118  RH  005%=      5-min Rain = 0
KLA1 081912Z 26009KT 33/M12 A298 RMK A01 T03271117  RH  005%=      5-min Rain = 0
KLA1 081913Z 25011KT 33/M12 A298 RMK A01 T03261119  RH  005%=      5-min Rain = 0
KLA1 081914Z 26009KT 33/M12 A298 RMK A01 T03261118  RH  005%=      5-min Rain = 0
KLA1 081915Z 26008KT 33/M12 A298 RMK A01 T03261118  RH  005%=      5-min Rain = 0
KLA1 081916Z 24007G12KT 33/M11 A298 RMK A01 T03271114  RH  005%=      5-min Rain = 0
KLA1 081917Z 25011KT 33/M12 A298 RMK A01 T03281115  RH  005%=      5-min Rain = 0
KLA1 081918Z 25009G16KT 33/M11 A298 RMK A01 T03291114  RH  005%=      5-min Rain = 0
KLA1 081919Z 26009KT 33/M12 A298 RMK A01 T03311115  RH  005%=      5-min Rain = 0
KLA1 081920Z 29009KT 33/M11 A298 RMK A01 T03291113  RH  005%=      5-min Rain = 0
KLA1 081921Z 30010KT 33/M11 A298 RMK A01 T03301111  RH  005%=      5-min Rain = 0
KLA1 081922Z 29009KT 33/M11 A298 RMK A01 T03311114  RH  005%=      5-min Rain = 0
KLA1 081923Z 27008KT 33/M11 A298 RMK A01 T03321112  RH  005%=      5-min Rain = 0
KLA1 081924Z 28009KT 33/M11 A298 RMK A01 T03331109  RH  005%=      5-min Rain = 0
KLA1 081925Z 30013KT 34/M11 A2979 RMK A01 T03351109  RH  005%=      5-min Rain = 0
KLA1 081926Z 30012KT 34/M12 A2979 RMK A01 T03351117  RH  005%=      5-min Rain = 0
KLA1 081927Z 30010KT 33/M12 A2979 RMK A01 T03331116  RH  005%=      5-min Rain = 0
KLA1 081928Z 29011KT 33/M11 A2979 RMK A01 T03331114  RH  005%=      5-min Rain = 0
KLA1 081929Z 29011KT 33/M12 A2979 RMK A01 T03321116  RH  005%=      5-min Rain = 0
KLA1 081930Z 29010KT 33/M12 A2979 RMK A01 T03311115  RH  005%=      5-min Rain = 0
KLA1 081931Z 30010KT 33/M12 A2979 RMK A01 T03311117  RH  005%=      5-min Rain = 0
KLA1 081932Z 30008KT 33/M12 A2979 RMK A01 T03301116  RH  005%=      5-min Rain = 0
KLA1 081933Z 30007KT 33/M12 A2979 RMK A01 T03301116  RH  005%=      5-min Rain = 0
KLA1 081934Z 30007KT 33/M12 A2979 RMK A01 T03301118  RH  005%=      5-min Rain = 0
KLA1 081935Z 28004KT 33/M12 A2979 RMK A01 T03291117  RH  005%=      5-min Rain = 0
KLA1 081936Z 32005G11KT 33/M12 A2979 RMK A01 T03291116  RH  005%=      5-min Rain = 0
KLA1 081937Z 31010KT 33/M12 A2979 RMK A01 T03301115  RH  005%=      5-min Rain = 0
KLA1 081938Z 32010KT 33/M11 A2979 RMK A01 T03321109  RH  005%=      5-min Rain = 0
KLA1 081939Z 31011KT 33/M11 A2979 RMK A01 T03341113  RH  005%=      5-min Rain = 0
KLA1 081940Z 32009KT 33/M11 A2979 RMK A01 T03341114  RH  005%=      5-min Rain = 0
KLA1 081941Z 31010KT 33/M11 A2979 RMK A01 T03341113  RH  005%=      5-min Rain = 0
KLA1 081942Z 29010KT 33/M11 A2979 RMK A01 T03331113  RH  005%=      5-min Rain = 0
KLA1 081943Z 29009KT 33/M11 A2979 RMK A01 T03331114  RH  005%=      5-min Rain = 0
KLA1 081944Z 29005G10KT 33/M11 A2979 RMK A01 T03331112  RH  005%=      5-min Rain = 0
KLA1 081945Z 27007KT 33/M11 A2979 RMK A01 T03341108  RH  005%=      5-min Rain = 0
KLA1 081946Z 27006KT 34/M11 A2979 RMK A01 T03351108  RH  005%=      5-min Rain = 0
KLA1 081947Z 28008KT 34/M10 A2978 RMK A01 T03381103  RH  005%=      5-min Rain = 0
KLA1 081948Z 30008KT 34/M11 A2979 RMK A01 T03381110  RH  005%=      5-min Rain = 0
KLA1 081949Z 30007KT 34/M11 A2979 RMK A01 T03381107  RH  005%=      5-min Rain = 0
KLA1 081950Z 30008KT 34/M11 A2978 RMK A01 T03371110  RH  005%=      5-min Rain = 0
KLA1 081951Z 29007KT 34/M11 A2978 RMK A01 T03361111  RH  005%=      5-min Rain = 0
KLA1 081952Z 29006KT 34/M11 A2978 RMK A01 T03351111  RH  005%=      5-min Rain = 0
KLA1 081953Z 30006G14KT 33/M11 A2978 RMK A01 T03331107  RH  005%=      5-min Rain = 0
KLA1 081954Z 32011KT 34/M10 A2978 RMK A01 T03351102  RH  005%=      5-min Rain = 0
KLA1 081955Z 30012KT 34/M11 A2978 RMK A01 T03361105  RH  005%=      5-min Rain = 0
KLA1 081956Z 28008KT 34/M11 A2978 RMK A01 T03351106  RH  005%=      5-min Rain = 0
KLA1 081957Z 27004KT 33/M11 A2978 RMK A01 T03341108  RH  005%=      5-min Rain = 0
KLA1 081958Z 30003KT 33/M11 A2978 RMK A01 T03331110  RH  005%=      5-min Rain = 0
KLA1 081959Z 30005KT 33/M11 A2978 RMK A01 T03321108  RH  005%=      5-min Rain = 0
KLA1 082000Z 29007KT 33/M10 A2978 RMK A01 T03331101  RH  006%=      5-min Rain = 0
KLA1 082001Z 27008KT 34/M10 A2978 RMK A01 T03361097  RH  006%=      5-min Rain = 0
KLA1 082002Z 27011KT 34/M10 A2978 RMK A01 T03391100  RH  005%=      5-min Rain = 0
KLA1 082003Z 27011KT 34/M10 A2978 RMK A01 T03391104  RH  005%=      5-min Rain = 0
KLA1 082004Z 27009KT 34/M11 A2978 RMK A01 T03361107  RH  005%=      5-min Rain = 0
KLA1 082005Z 27008KT 33/M11 A2978 RMK A01 T03321106  RH  005%=      5-min Rain = 0
KLA1 082006Z 27006KT 33/M10 A2978 RMK A01 T03321104  RH  005%=      5-min Rain = 0
KLA1 082007Z 27004KT 33/M11 A2978 RMK A01 T03311110  RH  005%=      5-min Rain = 0
KLA1 082008Z 27005KT 33/M11 A2977 RMK A01 T03311107  RH  005%=      5-min Rain = 0
KLA1 082009Z 27007KT 33/M10 A2977 RMK A01 T03331098  RH  006%=      5-min Rain = 0
KLA1 082010Z 25007KT 34/M10 A2978 RMK A01 T03361104  RH  005%=      5-min Rain = 0
KLA1 082011Z 28003KT 34/M11 A2978 RMK A01 T03361106  RH  005%=      5-min Rain = 0
KLA1 082012Z 30005KT 34/M10 A2977 RMK A01 T03361104  RH  005%=      5-min Rain = 0
KLA1 082013Z 31004KT 34/M10 A2977 RMK A01 T03381100  RH  005%=      5-min Rain = 0
KLA1 082014Z 31005KT 34/M10 A2977 RMK A01 T03421099  RH  005%=      5-min Rain = 0
KLA1 082015Z 29007KT 35/M10 A2977 RMK A01 T03451098  RH  005%=      5-min Rain = 0
KLA1 082016Z 29007KT 34/M11 A2977 RMK A01 T03441106  RH  005%=      5-min Rain = 0
KLA1 082017Z 29011G16KT 34/M11 A2977 RMK A01 T03421105  RH  005%=      5-min Rain = 0
KLA1 082018Z 32009KT 34/M11 A2977 RMK A01 T03401108  RH  005%=      5-min Rain = 0
KLA1 082019Z 31009KT 34/M11 A2977 RMK A01 T03371109  RH  005%=      5-min Rain = 0
KLA1 082020Z 31010KT 34/M11 A2977 RMK A01 T03381105  RH  005%=      5-min Rain = 0
KLA1 082021Z 32009KT 34/M11 A2977 RMK A01 T03391109  RH  005%=      5-min Rain = 0
KLA1 082022Z 32009KT 34/M11 A2977 RMK A01 T03391106  RH  005%=      5-min Rain = 0
KLA1 082023Z 34007KT 34/M10 A2977 RMK A01 T03411099  RH  005%=      5-min Rain = 0
KLA1 082024Z 34009KT 34/M11 A2977 RMK A01 T03431105  RH  005%=      5-min Rain = 0
KLA1 082025Z 30008KT 34/M11 A2977 RMK A01 T03391109  RH  005%=      5-min Rain = 0
KLA1 082026Z 34008KT 34/M10 A2977 RMK A01 T03381104  RH  005%=      5-min Rain = 0
KLA1 082027Z 35008KT 34/M11 A2977 RMK A01 T03391108  RH  005%=      5-min Rain = 0
KLA1 082028Z 36006KT 34/M11 A2977 RMK A01 T03371112  RH  005%=      5-min Rain = 0
KLA1 082029Z 35004KT 34/M11 A2976 RMK A01 T03361111  RH  005%=      5-min Rain = 0
KLA1 082030Z 36002KT 34/M11 A2976 RMK A01 T03361114  RH  005%=      5-min Rain = 0
KLA1 082031Z 30005G10KT 34/M11 A2976 RMK A01 T03351111  RH  005%=      5-min Rain = 0
KLA1 082032Z 30013KT 34/M11 A2976 RMK A01 T03371106  RH  005%=      5-min Rain = 0
KLA1 082033Z 31011KT 34/M11 A2976 RMK A01 T03381109  RH  005%=      5-min Rain = 0
KLA1 082034Z 31011KT 34/M11 A2976 RMK A01 T03381107  RH  005%=      5-min Rain = 0
KLA1 082035Z 32009G14KT 34/M11 A2976 RMK A01 T03391108  RH  005%=      5-min Rain = 0
KLA1 082036Z 31011KT 34/M11 A2976 RMK A01 T03391108  RH  005%=      5-min Rain = 0
KLA1 082037Z 32009KT 34/M11 A2976 RMK A01 T03391109  RH  005%=      5-min Rain = 0
KLA1 082038Z 32005KT 34/M11 A2976 RMK A01 T03351114  RH  005%=      5-min Rain = 0
KLA1 082039Z 31002KT 33/M11 A2976 RMK A01 T03331112  RH  005%=      5-min Rain = 0
KLA1 082040Z 02002KT 33/M11 A2976 RMK A01 T03331113  RH  005%=      5-min Rain = 0
KLA1 082041Z 01003KT 33/M11 A2976 RMK A01 T03331110  RH  005%=      5-min Rain = 0
KLA1 082042Z 02002KT 33/M11 A2976 RMK A01 T03331113  RH  005%=      5-min Rain = 0
KLA1 082043Z 01001KT 33/M11 A2976 RMK A01 T03331109  RH  005%=      5-min Rain = 0
KLA1 082044Z 28001KT 33/M11 A2976 RMK A01 T03341109  RH  005%=      5-min Rain = 0
KLA1 082045Z 23002KT 34/M11 A2975 RMK A01 T03361106  RH  005%=      5-min Rain = 0
KLA1 082046Z 28002KT 34/M11 A2975 RMK A01 T03381110  RH  005%=      5-min Rain = 0
KLA1 082047Z 33002KT 34/M11 A2975 RMK A01 T03391105  RH  005%=      5-min Rain = 0
KLA1 082048Z 01004KT 34/M11 A2975 RMK A01 T03401105  RH  005%=      5-min Rain = 0
KLA1 082049Z 33005G11KT 34/M10 A2975 RMK A01 T03411104  RH  005%=      5-min Rain = 0
KLA1 082050Z 30011KT 34/M11 A2975 RMK A01 T03401105  RH  005%=      5-min Rain = 0
KLA1 082051Z 30010KT 34/M11 A2975 RMK A01 T03401108  RH  005%=      5-min Rain = 0
KLA1 082052Z 28010KT 34/M11 A2975 RMK A01 T03401105  RH  005%=      5-min Rain = 0
KLA1 082053Z 28008KT 34/M11 A2975 RMK A01 T03411110  RH  005%=      5-min Rain = 0
KLA1 082054Z 28004KT 34/M11 A2975 RMK A01 T03381112  RH  005%=      5-min Rain = 0
KLA1 082055Z 29006KT 34/M11 A2975 RMK A01 T03371112  RH  005%=      5-min Rain = 0
KLA1 082056Z 30013KT 34/M11 A2975 RMK A01 T03361108  RH  005%=      5-min Rain = 0
KLA1 082057Z 32009KT 34/M11 A2975 RMK A01 T03361108  RH  005%=      5-min Rain = 0
KLA1 082058Z 29010KT 34/M11 A2975 RMK A01 T03381107  RH  005%=      5-min Rain = 0
KLA1 082059Z 28012KT 34/M11 A2975 RMK A01 T03401107  RH  005%=      5-min Rain = 0
KLA1 082100Z 26010KT 34/M11 A2975 RMK A01 T03401113  RH  005%=      5-min Rain = 0
KLA1 082101Z 27007KT 34/M12 A2975 RMK A01 T03351118  RH  005%=      5-min Rain = 0
KLA1 082102Z 27005KT 33/M11 A2975 RMK A01 T03331114  RH  005%=      5-min Rain = 0
KLA1 082103Z 25008KT 33/M11 A2975 RMK A01 T03331112  RH  005%=      5-min Rain = 0
KLA1 082104Z 26006KT 34/M11 A2975 RMK A01 T03351113  RH  005%=      5-min Rain = 0
KLA1 082105Z 25003KT 33/M12 A2975 RMK A01 T03331116  RH  005%=      5-min Rain = 0
KLA1 082106Z 26003KT 33/M12 A2975 RMK A01 T03321118  RH  005%=      5-min Rain = 0
KLA1 082107Z 25006KT 33/M11 A2975 RMK A01 T03321112  RH  005%=      5-min Rain = 0
KLA1 082108Z 24002KT 33/M12 A2975 RMK A01 T03331115  RH  005%=      5-min Rain = 0
KLA1 082109Z 24002KT 33/M11 A2974 RMK A01 T03331114  RH  005%=      5-min Rain = 0
KLA1 082110Z 24004KT 33/M11 A2974 RMK A01 T03341111  RH  005%=      5-min Rain = 0
KLA1 082111Z 23007KT 34/M11 A2974 RMK A01 T03361109  RH  005%=      5-min Rain = 0
KLA1 082112Z 21010G17KT 34/M11 A2974 RMK A01 T03381105  RH  005%=      5-min Rain = 0
KLA1 082113Z 27013KT 34/M10 A2974 RMK A01 T03411103  RH  005%=      5-min Rain = 0
KLA1 082114Z 29011KT 34/M10 A2974 RMK A01 T03441104  RH  005%=      5-min Rain = 0
KLA1 082115Z 31004KT 34/M11 A2974 RMK A01 T03431109  RH  005%=      5-min Rain = 0
KLA1 082116Z 34002KT 34/M11 A2974 RMK A01 T03401110  RH  005%=      5-min Rain = 0
KLA1 082117Z 30004KT 34/M11 A2974 RMK A01 T03391107  RH  005%=      5-min Rain = 0
KLA1 082118Z 29005KT 34/M11 A2974 RMK A01 T03401106  RH  005%=      5-min Rain = 0
KLA1 082119Z 27006KT 34/M11 A2974 RMK A01 T03411106  RH  005%=      5-min Rain = 0
KLA1 082120Z 25006KT 34/M10 A2974 RMK A01 T03421104  RH  005%=      5-min Rain = 0
KLA1 082121Z 25005KT 34/M11 A2974 RMK A01 T03421106  RH  005%=      5-min Rain = 0
KLA1 082122Z 29006KT 34/M11 A2974 RMK A01 T03441105  RH  005%=      5-min Rain = 0
KLA1 082123Z 27007KT 34/M11 A2974 RMK A01 T03431106  RH  005%=      5-min Rain = 0
KLA1 082124Z 28006KT 34/M11 A2974 RMK A01 T03431109  RH  005%=      5-min Rain = 0
KLA1 082125Z 31005KT 34/M11 A2974 RMK A01 T03431108  RH  005%=      5-min Rain = 0
KLA1 082126Z 32004KT 34/M10 A2974 RMK A01 T03431104  RH  005%=      5-min Rain = 0
KLA1 082127Z 30006KT 35/M11 A2974 RMK A01 T03451106  RH  005%=      5-min Rain = 0
KLA1 082128Z 28006KT 34/M11 A2974 RMK A01 T03441108  RH  005%=      5-min Rain = 0
KLA1 082129Z 27007KT 34/M11 A2974 RMK A01 T03421111  RH  005%=      5-min Rain = 0
KLA1 082130Z 27006KT 34/M11 A2974 RMK A01 T03421110  RH  005%=      5-min Rain = 0
KLA1 082131Z 29007G12KT 34/M11 A2974 RMK A01 T03411108  RH  005%=      5-min Rain = 0
KLA1 082132Z 29009KT 34/M11 A2974 RMK A01 T03411108  RH  005%=      5-min Rain = 0
KLA1 082133Z 30010KT 34/M10 A2974 RMK A01 T03421103  RH  005%=      5-min Rain = 0
KLA1 082134Z 30009KT 34/M11 A2974 RMK A01 T03431108  RH  005%=      5-min Rain = 0
KLA1 082135Z 32006KT 34/M11 A2974 RMK A01 T03421108  RH  005%=      5-min Rain = 0
KLA1 082136Z 33006KT 34/M11 A2974 RMK A01 T03421108  RH  005%=      5-min Rain = 0
KLA1 082137Z 30007KT 34/M11 A2974 RMK A01 T03401111  RH  005%=      5-min Rain = 0
KLA1 082138Z 30009KT 34/M11 A2974 RMK A01 T03401107  RH  005%=      5-min Rain = 0
KLA1 082139Z 29006KT 34/M11 A2974 RMK A01 T03391110  RH  005%=      5-min Rain = 0
KLA1 082140Z 31005KT 34/M11 A2973 RMK A01 T03381111  RH  005%=      5-min Rain = 0
KLA1 082141Z 30005KT 34/M11 A2973 RMK A01 T03371110  RH  005%=      5-min Rain = 0
KLA1 082142Z 30009KT 34/M11 A2973 RMK A01 T03381105  RH  005%=      5-min Rain = 0
KLA1 082143Z 30008KT 34/M10 A2973 RMK A01 T03411104  RH  005%=      5-min Rain = 0
KLA1 082144Z 29009KT 34/M11 A2973 RMK A01 T03421106  RH  005%=      5-min Rain = 0
KLA1 082145Z 29010KT 34/M11 A2973 RMK A01 T03421108  RH  005%=      5-min Rain = 0
KLA1 082146Z 28006KT 34/M11 A2973 RMK A01 T03391114  RH  005%=      5-min Rain = 0
KLA1 082147Z 28009KT 34/M11 A2973 RMK A01 T03371110  RH  005%=      5-min Rain = 0
KLA1 082148Z 28008KT 34/M11 A2973 RMK A01 T03371112  RH  005%=      5-min Rain = 0
KLA1 082149Z 28007KT 34/M11 A2973 RMK A01 T03371109  RH  005%=      5-min Rain = 0
KLA1 082150Z 28004KT 34/M11 A2973 RMK A01 T03391107  RH  005%=      5-min Rain = 0
KLA1 082151Z 29002KT 34/M11 A2973 RMK A01 T03391113  RH  005%=      5-min Rain = 0
KLA1 082152Z 33002KT 34/M11 A2973 RMK A01 T03391105  RH  005%=      5-min Rain = 0
KLA1 082153Z 35002KT 34/M11 A2973 RMK A01 T03411109  RH  005%=      5-min Rain = 0
KLA1 082154Z 31003KT 34/M11 A2973 RMK A01 T03421110  RH  005%=      5-min Rain = 0
KLA1 082155Z 24003KT 34/M10 A2973 RMK A01 T03431104  RH  005%=      5-min Rain = 0
KLA1 082156Z 22004KT 34/M11 A2973 RMK A01 T03421108  RH  005%=      5-min Rain = 0
KLA1 082157Z 25006KT 34/M11 A2973 RMK A01 T03411110  RH  005%=      5-min Rain = 0
KLA1 082158Z 26007KT 34/M11 A2973 RMK A01 T03411106  RH  005%=      5-min Rain = 0
KLA1 082159Z 26010KT 34/M11 A2973 RMK A01 T03411105  RH  005%=      5-min Rain = 0
KLA1 082200Z 26010KT 34/M11 A2973 RMK A01 T03431105  RH  005%=      5-min Rain = 0
KLA1 082201Z 26009KT 34/M11 A2973 RMK A01 T03431107  RH  005%=      5-min Rain = 0
KLA1 082202Z 25008KT 34/M11 A2972 RMK A01 T03411108  RH  005%=      5-min Rain = 0
KLA1 082203Z 28005KT 34/M11 A2972 RMK A01 T03411108  RH  005%=      5-min Rain = 0
KLA1 082204Z 25007KT 34/M11 A2972 RMK A01 T03401109  RH  005%=      5-min Rain = 0
KLA1 082205Z 25004KT 34/M11 A2972 RMK A01 T03381112  RH  005%=      5-min Rain = 0
KLA1 082206Z 26002KT 34/M12 A2972 RMK A01 T03371115  RH  005%=      5-min Rain = 0
KLA1 082207Z 28004KT 34/M11 A2972 RMK A01 T03371110  RH  005%=      5-min Rain = 0
KLA1 082208Z 28005KT 34/M11 A2972 RMK A01 T03381110  RH  005%=      5-min Rain = 0
KLA1 082209Z 29002KT 34/M11 A2972 RMK A01 T03381112  RH  005%=      5-min Rain = 0
KLA1 082210Z 30001KT 34/M11 A2972 RMK A01 T03371114  RH  005%=      5-min Rain = 0
KLA1 082211Z 24001KT 34/M11 A2971 RMK A01 T03371110  RH  005%=      5-min Rain = 0
KLA1 082212Z 24003KT 34/M11 A2971 RMK A01 T03371109  RH  005%=      5-min Rain = 0
KLA1 082213Z 24004KT 34/M11 A2971 RMK A01 T03371105  RH  005%=      5-min Rain = 0
KLA1 082214Z 25004KT 34/M11 A2971 RMK A01 T03371106  RH  005%=      5-min Rain = 0
KLA1 082215Z 25008KT 34/M10 A2971 RMK A01 T03381104  RH  005%=      5-min Rain = 0
KLA1 082216Z 27011G16KT 34/M11 A2971 RMK A01 T03381106  RH  005%=      5-min Rain = 0
KLA1 082217Z 30010G15KT 34/M11 A2971 RMK A01 T03371105  RH  005%=      5-min Rain = 0
KLA1 082218Z 31006KT 34/M10 A2971 RMK A01 T03371099  RH  006%=      5-min Rain = 0
KLA1 082219Z 30008KT 34/M10 A2971 RMK A01 T03371100  RH  005%=      5-min Rain = 0
KLA1 082220Z 30008KT 34/M10 A2971 RMK A01 T03371104  RH  005%=      5-min Rain = 0
KLA1 082221Z 30008KT 34/M11 A2971 RMK A01 T03351106  RH  005%=      5-min Rain = 0
KLA1 082222Z 29006KT 33/M11 A2971 RMK A01 T03341106  RH  005%=      5-min Rain = 0
KLA1 082223Z 28004KT 33/M11 A2971 RMK A01 T03341106  RH  005%=      5-min Rain = 0
KLA1 082224Z 28004KT 34/M11 A2971 RMK A01 T03351105  RH  005%=      5-min Rain = 0
KLA1 082225Z 28005G11KT 34/M10 A2971 RMK A01 T03361104  RH  005%=      5-min Rain = 0
KLA1 082226Z 29011KT 34/M10 A2971 RMK A01 T03391104  RH  005%=      5-min Rain = 0
KLA1 082227Z 30009KT 34/M10 A2971 RMK A01 T03391102  RH  005%=      5-min Rain = 0
KLA1 082228Z 30007KT 34/M11 A2971 RMK A01 T03411106  RH  005%=      5-min Rain = 0
KLA1 082229Z 32006KT 34/M11 A297 RMK A01 T03401105  RH  005%=      5-min Rain = 0
KLA1 082230Z 33008KT 34/M10 A297 RMK A01 T03401103  RH  005%=      5-min Rain = 0
KLA1 082231Z 28006KT 34/M10 A297 RMK A01 T03401102  RH  005%=      5-min Rain = 0
KLA1 082232Z 28007G12KT 34/M10 A297 RMK A01 T03421100  RH  005%=      5-min Rain = 0
KLA1 082233Z 30009KT 34/M10 A297 RMK A01 T03431103  RH  005%=      5-min Rain = 0
KLA1 082234Z 30008KT 34/M10 A297 RMK A01 T03421104  RH  005%=      5-min Rain = 0
KLA1 082235Z 30007KT 34/M11 A297 RMK A01 T03421105  RH  005%=      5-min Rain = 0
KLA1 082236Z 31006KT 34/M11 A297 RMK A01 T03401105  RH  005%=      5-min Rain = 0
KLA1 082237Z 31005KT 34/M11 A297 RMK A01 T03391105  RH  005%=      5-min Rain = 0
KLA1 082238Z 32004KT 34/M11 A297 RMK A01 T03391106  RH  005%=      5-min Rain = 0
KLA1 082239Z 31004KT 34/M11 A297 RMK A01 T03371110  RH  005%=      5-min Rain = 0
KLA1 082240Z 29004KT 34/M11 A297 RMK A01 T03361106  RH  005%=      5-min Rain = 0
KLA1 082241Z 26003KT 34/M11 A297 RMK A01 T03361108  RH  005%=      5-min Rain = 0
KLA1 082242Z 31006KT 34/M11 A297 RMK A01 T03361109  RH  005%=      5-min Rain = 0
KLA1 082243Z 33005KT 34/M11 A297 RMK A01 T03361108  RH  005%=      5-min Rain = 0
KLA1 082244Z 32005KT 34/M10 A297 RMK A01 T03361103  RH  005%=      5-min Rain = 0
KLA1 082245Z 32004KT 34/M11 A297 RMK A01 T03371106  RH  005%=      5-min Rain = 0
KLA1 082246Z 32002KT 34/M11 A297 RMK A01 T03381106  RH  005%=      5-min Rain = 0
KLA1 082247Z 32001KT 34/M10 A297 RMK A01 T03381104  RH  005%=      5-min Rain = 0
KLA1 082248Z 03000KT 34/M10 A297 RMK A01 T03391101  RH  005%=      5-min Rain = 0
KLA1 082249Z 31002KT 34/M10 A297 RMK A01 T03391100  RH  005%=      5-min Rain = 0
KLA1 082250Z 29003KT 34/M10 A297 RMK A01 T03401104  RH  005%=      5-min Rain = 0
KLA1 082251Z 29003KT 34/M11 A297 RMK A01 T03401107  RH  005%=      5-min Rain = 0
KLA1 082252Z 29003KT 34/M11 A297 RMK A01 T03391107  RH  005%=      5-min Rain = 0
KLA1 082253Z 31002KT 34/M11 A297 RMK A01 T03391107  RH  005%=      5-min Rain = 0
KLA1 082254Z 28002KT 34/M11 A297 RMK A01 T03391106  RH  005%=      5-min Rain = 0
KLA1 082255Z 29004KT 34/M10 A297 RMK A01 T03401104  RH  005%=      5-min Rain = 0
KLA1 082256Z 28004KT 34/M10 A297 RMK A01 T03411103  RH  005%=      5-min Rain = 0
KLA1 082257Z 30005KT 34/M10 A297 RMK A01 T03421103  RH  005%=      5-min Rain = 0
KLA1 082258Z 31004KT 34/M10 A297 RMK A01 T03431100  RH  005%=      5-min Rain = 0
KLA1 082259Z 31005KT 34/M10 A297 RMK A01 T03421100  RH  005%=      5-min Rain = 0
KLA1 082300Z 28004KT 34/M10 A297 RMK A01 T03421103  RH  005%=      5-min Rain = 0
KLA1 082301Z 26004KT 34/M10 A297 RMK A01 T03411097  RH  005%=      5-min Rain = 0
KLA1 082302Z 25009KT 34/M10 A297 RMK A01 T03431097  RH  005%=      5-min Rain = 0
KLA1 082303Z 26007KT 34/M10 A297 RMK A01 T03411104  RH  005%=      5-min Rain = 0
KLA1 082304Z 26007KT 34/M10 A297 RMK A01 T03391104  RH  005%=      5-min Rain = 0
KLA1 082305Z 27004KT 34/M11 A297 RMK A01 T03371107  RH  005%=      5-min Rain = 0
KLA1 082306Z 27003KT 34/M11 A297 RMK A01 T03351105  RH  005%=      5-min Rain = 0
KLA1 082307Z 26005G10KT 33/M10 A297 RMK A01 T03341102  RH  006%=      5-min Rain = 0
KLA1 082308Z 27009KT 33/M10 A297 RMK A01 T03341103  RH  005%=      5-min Rain = 0
KLA1 082309Z 27007KT 34/M10 A297 RMK A01 T03351102  RH  005%=      5-min Rain = 0
KLA1 082310Z 27005KT 34/M10 A297 RMK A01 T03361102  RH  005%=      5-min Rain = 0
KLA1 082311Z 25004KT 34/M10 A297 RMK A01 T03371101  RH  005%=      5-min Rain = 0
KLA1 082312Z 27004KT 34/M10 A2969 RMK A01 T03391097  RH  006%=      5-min Rain = 0
KLA1 082313Z 29005KT 34/M10 A2969 RMK A01 T03411099  RH  005%=      5-min Rain = 0
KLA1 082314Z 29005KT 34/M10 A2969 RMK A01 T03421099  RH  005%=      5-min Rain = 0
KLA1 082315Z 30005KT 34/M10 A2969 RMK A01 T03411103  RH  005%=      5-min Rain = 0
KLA1 082316Z 31003KT 34/M11 A2969 RMK A01 T03391105  RH  005%=      5-min Rain = 0
KLA1 082317Z 29004KT 34/M10 A2969 RMK A01 T03381104  RH  005%=      5-min Rain = 0
KLA1 082318Z 30005KT 34/M10 A2969 RMK A01 T03381101  RH  005%=      5-min Rain = 0
KLA1 082319Z 30005KT 34/M10 A2969 RMK A01 T03381103  RH  005%=      5-min Rain = 0
KLA1 082320Z 30004KT 34/M10 A2969 RMK A01 T03361103  RH  005%=      5-min Rain = 0
KLA1 082321Z 30004KT 34/M10 A2969 RMK A01 T03361102  RH  005%=      5-min Rain = 0
KLA1 082322Z 29004KT 34/M10 A2969 RMK A01 T03351102  RH  005%=      5-min Rain = 0
KLA1 082323Z 29006KT 34/M10 A2969 RMK A01 T03351099  RH  006%=      5-min Rain = 0
KLA1 082324Z 29005KT 34/M10 A2969 RMK A01 T03361098  RH  006%=      5-min Rain = 0
KLA1 082325Z 29005KT 34/M10 A2969 RMK A01 T03361101  RH  005%=      5-min Rain = 0
KLA1 082326Z 27005KT 34/M10 A2969 RMK A01 T03351100  RH  006%=      5-min Rain = 0
KLA1 082327Z 27007KT 33/M10 A2969 RMK A01 T03341101  RH  006%=      5-min Rain = 0
KLA1 082328Z 28007KT 33/M10 A2969 RMK A01 T03341104  RH  005%=      5-min Rain = 0
KLA1 082329Z 27004KT 33/M11 A2969 RMK A01 T03331106  RH  005%=      5-min Rain = 0
KLA1 082330Z 27003KT 33/M10 A2969 RMK A01 T03321104  RH  005%=      5-min Rain = 0
KLA1 082331Z 27002KT 33/M10 A2969 RMK A01 T03321104  RH  005%=      5-min Rain = 0
KLA1 082332Z 26001KT 33/M11 A2969 RMK A01 T03321108  RH  005%=      5-min Rain = 0
KLA1 082333Z 25001KT 33/M11 A2969 RMK A01 T03321108  RH  005%=      5-min Rain = 0
KLA1 082334Z 28003KT 33/M11 A2969 RMK A01 T03321109  RH  005%=      5-min Rain = 0
KLA1 082335Z 28003KT 33/M11 A2969 RMK A01 T03321106  RH  005%=      5-min Rain = 0
KLA1 082336Z 27003KT 33/M10 A2969 RMK A01 T03331099  RH  006%=      5-min Rain = 0
KLA1 082337Z 29004KT 33/M10 A2969 RMK A01 T03341102  RH  005%=      5-min Rain = 0
KLA1 082338Z 31004KT 33/M10 A2969 RMK A01 T03341101  RH  006%=      5-min Rain = 0
KLA1 082339Z 31005KT 33/M10 A2969 RMK A01 T03341099  RH  006%=      5-min Rain = 0
KLA1 082340Z 30006KT 33/M10 A2969 RMK A01 T03341099  RH  006%=      5-min Rain = 0
KLA1 082341Z 32007KT 33/M10 A2969 RMK A01 T03341098  RH  006%=      5-min Rain = 0
KLA1 082342Z 32006KT 33/M10 A2969 RMK A01 T03341098  RH  006%=      5-min Rain = 0
KLA1 082343Z 32006KT 33/M10 A2969 RMK A01 T03341103  RH  005%=      5-min Rain = 0
KLA1 082344Z 32007KT 33/M10 A2969 RMK A01 T03331101  RH  006%=      5-min Rain = 0
KLA1 082345Z 32006KT 33/M10 A2969 RMK A01 T03331100  RH  006%=      5-min Rain = 0
KLA1 082346Z 31006KT 33/M10 A2969 RMK A01 T03331101  RH  006%=      5-min Rain = 0
KLA1 082347Z 32005KT 33/M10 A2969 RMK A01 T03321103  RH  006%=      5-min Rain = 0
KLA1 082348Z 33005KT 33/M10 A2969 RMK A01 T03301104  RH  006%=      5-min Rain = 0
KLA1 082349Z 35005KT 33/M10 A2969 RMK A01 T03291103  RH  006%=      5-min Rain = 0
KLA1 082350Z 35003KT 33/M10 A2969 RMK A01 T03281100  RH  006%=      5-min Rain = 0
KLA1 082351Z 35005KT 33/M10 A2969 RMK A01 T03281098  RH  006%=      5-min Rain = 0
KLA1 082352Z 36006KT 33/M10 A2969 RMK A01 T03281095  RH  006%=      5-min Rain = 0
KLA1 082353Z 35004KT 33/M10 A2969 RMK A01 T03271101  RH  006%=      5-min Rain = 0
KLA1 082354Z 35003KT 33/M10 A2969 RMK A01 T03261098  RH  006%=      5-min Rain = 0
KLA1 082355Z 36003KT 33/M10 A2969 RMK A01 T03261102  RH  006%=      5-min Rain = 0
KLA1 082356Z 32006KT 33/M10 A2969 RMK A01 T03261101  RH  006%=      5-min Rain = 0
KLA1 082357Z 32004KT 33/M10 A2969 RMK A01 T03261100  RH  006%=      5-min Rain = 0
KLA1 082358Z 31004KT 33/M10 A2969 RMK A01 T03261099  RH  006%=      5-min Rain = 0
KLA1 082359Z 32004KT 33/M10 A2969 RMK A01 T03261101  RH  006%=      5-min Rain = 0
KLA1 090000Z 33003KT 33/M10 A2969 RMK A01 T03261100  RH  006%=      5-min Rain = 0
KLA1 090001Z 32004KT 33/M10 A2969 RMK A01 T03271102  RH  006%=      5-min Rain = 0
KLA1 090002Z 31004KT 33/M10 A2969 RMK A01 T03281103  RH  006%=      5-min Rain = 0
KLA1 090003Z 31003KT 33/M10 A2969 RMK A01 T03291102  RH  006%=      5-min Rain = 0
KLA1 090004Z 29003KT 33/M10 A2969 RMK A01 T03291104  RH  006%=      5-min Rain = 0
KLA1 090005Z 30002KT 33/M11 A2969 RMK A01 T03301107  RH  005%=      5-min Rain = 0
KLA1 090006Z 31002KT 33/M10 A2969 RMK A01 T03301104  RH  006%=      5-min Rain = 0
KLA1 090007Z 35002KT 33/M10 A2969 RMK A01 T03301100  RH  006%=      5-min Rain = 0
KLA1 090008Z 35001KT 33/M10 A2969 RMK A01 T03301101  RH  006%=      5-min Rain = 0
KLA1 090009Z 33001KT 33/M10 A2969 RMK A01 T03301104  RH  006%=      5-min Rain = 0
KLA1 090010Z 30002KT 33/M10 A2969 RMK A01 T03301104  RH  006%=      5-min Rain = 0
KLA1 090011Z 30002KT 33/M10 A2969 RMK A01 T03301102  RH  006%=      5-min Rain = 0
KLA1 090012Z 30002KT 33/M10 A2969 RMK A01 T03301104  RH  006%=      5-min Rain = 0
KLA1 090013Z 30002KT 33/M10 A2968 RMK A01 T03301101  RH  006%=      5-min Rain = 0
KLA1 090014Z 30002KT 33/M10 A2968 RMK A01 T03291101  RH  006%=      5-min Rain = 0
KLA1 090015Z 31001KT 33/M10 A2968 RMK A01 T03291099  RH  006%=      5-min Rain = 0
KLA1 090016Z 30001KT 33/M10 A2968 RMK A01 T03291099  RH  006%=      5-min Rain = 0
KLA1 090017Z 31002KT 33/M10 A2968 RMK A01 T03291097  RH  006%=      5-min Rain = 0
KLA1 090018Z 32001KT 33/M09 A2968 RMK A01 T03301091  RH  006%=      5-min Rain = 0
KLA1 090019Z 01001KT 33/M09 A2968 RMK A01 T03311089  RH  006%=      5-min Rain = 0
KLA1 090020Z 36001KT 33/M09 A2968 RMK A01 T03311088  RH  006%=      5-min Rain = 0
KLA1 090021Z 33002KT 33/M09 A2968 RMK A01 T03311091  RH  006%=      5-min Rain = 0
KLA1 090022Z 33003KT 33/M09 A2968 RMK A01 T03311093  RH  006%=      5-min Rain = 0
KLA1 090023Z 00003KT 33/M09 A2968 RMK A01 T03311090  RH  006%=      5-min Rain = 0
KLA1 090024Z 35003KT 33/M09 A2968 RMK A01 T03291086  RH  006%=      5-min Rain = 0
KLA1 090025Z 35003KT 33/M09 A2968 RMK A01 T03271089  RH  006%=      5-min Rain = 0
KLA1 090026Z 00004KT 33/M09 A2968 RMK A01 T03251088  RH  006%=      5-min Rain = 0
KLA1 090027Z 36003KT 32/M08 A2968 RMK A01 T03231083  RH  007%=      5-min Rain = 0
KLA1 090028Z 36003KT 32/M08 A2968 RMK A01 T03211082  RH  007%=      5-min Rain = 0
KLA1 090029Z 35003KT 32/M08 A2968 RMK A01 T03191082  RH  007%=      5-min Rain = 0
KLA1 090030Z 01002KT 32/M08 A2968 RMK A01 T03171083  RH  007%=      5-min Rain = 0
KLA1 090031Z 02002KT 32/M08 A2968 RMK A01 T03161084  RH  007%=      5-min Rain = 0
KLA1 090032Z 02002KT 32/M08 A2968 RMK A01 T03151084  RH  007%=      5-min Rain = 0
KLA1 090033Z 01002KT 32/M09 A2968 RMK A01 T03151085  RH  007%=      5-min Rain = 0
KLA1 090034Z 03001KT 31/M09 A2968 RMK A01 T03141085  RH  007%=      5-min Rain = 0
KLA1 090035Z 04001KT 31/M08 A2968 RMK A01 T03131083  RH  007%=      5-min Rain = 0
KLA1 090036Z 04001KT 31/M08 A2968 RMK A01 T03131082  RH  007%=      5-min Rain = 0
KLA1 090037Z 04001KT 31/M08 A2968 RMK A01 T03121079  RH  007%=      5-min Rain = 0
KLA1 090038Z 03001KT 31/M08 A2969 RMK A01 T03111083  RH  007%=      5-min Rain = 0
KLA1 090039Z 03001KT 31/M08 A2969 RMK A01 T03111081  RH  007%=      5-min Rain = 0
KLA1 090040Z 04001KT 31/M08 A2969 RMK A01 T03101077  RH  008%=      5-min Rain = 0
KLA1 090041Z 03001KT 31/M08 A2969 RMK A01 T03081075  RH  008%=      5-min Rain = 0
KLA1 090042Z 03002KT 31/M08 A2969 RMK A01 T03071082  RH  007%=      5-min Rain = 0
KLA1 090043Z 02002KT 31/M08 A2969 RMK A01 T03061080  RH  008%=      5-min Rain = 0
KLA1 090044Z 03002KT 30/M07 A2969 RMK A01 T03041074  RH  008%=      5-min Rain = 0
KLA1 090045Z 03003KT 30/M07 A2968 RMK A01 T03021073  RH  008%=      5-min Rain = 0
KLA1 090046Z 03003KT 30/M07 A2968 RMK A01 T03001074  RH  008%=      5-min Rain = 0
KLA1 090047Z 03003KT 30/M07 A2968 RMK A01 T02991074  RH  008%=      5-min Rain = 0
KLA1 090048Z 03003KT 30/M08 A2969 RMK A01 T02981075  RH  008%=      5-min Rain = 0
KLA1 090049Z 02004KT 30/M07 A2969 RMK A01 T02971074  RH  008%=      5-min Rain = 0
KLA1 090050Z 02003KT 30/M07 A2969 RMK A01 T02961074  RH  008%=      5-min Rain = 0
KLA1 090051Z 01003KT 30/M07 A2969 RMK A01 T02951073  RH  009%=      5-min Rain = 0
KLA1 090052Z 02003KT 29/M07 A2969 RMK A01 T02941070  RH  009%=      5-min Rain = 0
KLA1 090053Z 02003KT 29/M07 A2969 RMK A01 T02931070  RH  009%=      5-min Rain = 0
KLA1 090054Z 02003KT 29/M07 A2969 RMK A01 T02921069  RH  009%=      5-min Rain = 0
KLA1 090055Z 01004KT 29/M07 A2969 RMK A01 T02911068  RH  009%=      5-min Rain = 0
KLA1 090056Z 01004KT 29/M07 A2968 RMK A01 T02901068  RH  009%=      5-min Rain = 0
KLA1 090057Z 01004KT 29/M07 A2968 RMK A01 T02891067  RH  009%=      5-min Rain = 0
KLA1 090058Z 01005KT 29/M07 A2968 RMK A01 T02881068  RH  009%=      5-min Rain = 0
KLA1 090059Z 01005KT 29/M07 A2968 RMK A01 T02871068  RH  009%=      5-min Rain = 0
KLA1 090100Z 01005KT 29/M07 A2968 RMK A01 T02861067  RH  009%=      5-min Rain = 0
KLA1 090101Z 01005KT 29/M07 A2968 RMK A01 T02861066  RH  010%=      5-min Rain = 0
KLA1 090102Z 01005KT 29/M07 A2968 RMK A01 T02851067  RH  010%=      5-min Rain = 0
KLA1 090103Z 01005KT 29/M07 A2968 RMK A01 T02851068  RH  009%=      5-min Rain = 0
KLA1 090104Z 00005KT 28/M07 A2968 RMK A01 T02841069  RH  009%=      5-min Rain = 0
KLA1 090105Z 01005KT 29/M07 A2968 RMK A01 T02851069  RH  009%=      5-min Rain = 0
KLA1 090106Z 00005KT 28/M07 A2968 RMK A01 T02841070  RH  009%=      5-min Rain = 0
KLA1 090107Z 01005KT 28/M07 A2968 RMK A01 T02841072  RH  009%=      5-min Rain = 0
KLA1 090108Z 01005KT 28/M07 A2968 RMK A01 T02841073  RH  009%=      5-min Rain = 0
KLA1 090109Z 01005KT 28/M07 A2968 RMK A01 T02831074  RH  009%=      5-min Rain = 0
KLA1 090110Z 01005KT 28/M07 A2968 RMK A01 T02831073  RH  009%=      5-min Rain = 0
KLA1 090111Z 01005KT 28/M07 A2968 RMK A01 T02821073  RH  009%=      5-min Rain = 0
KLA1 090112Z 01005KT 28/M07 A2968 RMK A01 T02821073  RH  009%=      5-min Rain = 0
KLA1 090113Z 01005KT 28/M07 A2968 RMK A01 T02811073  RH  009%=      5-min Rain = 0
KLA1 090114Z 01005KT 28/M08 A2968 RMK A01 T02801075  RH  009%=      5-min Rain = 0
KLA1 090115Z 01005KT 28/M08 A2968 RMK A01 T02811075  RH  009%=      5-min Rain = 0
KLA1 090116Z 01005KT 28/M08 A2968 RMK A01 T02801075  RH  009%=      5-min Rain = 0
KLA1 090117Z 01005KT 28/M08 A2968 RMK A01 T02811075  RH  009%=      5-min Rain = 0
KLA1 090118Z 01005KT 28/M08 A2968 RMK A01 T02801075  RH  009%=      5-min Rain = 0
KLA1 090119Z 01005KT 28/M07 A2968 RMK A01 T02791074  RH  009%=      5-min Rain = 0
KLA1 090120Z 01005KT 28/M08 A2968 RMK A01 T02781075  RH  009%=      5-min Rain = 0
KLA1 090121Z 01006KT 28/M08 A2968 RMK A01 T02781075  RH  009%=      5-min Rain = 0
KLA1 090122Z 01006KT 28/M08 A2968 RMK A01 T02771076  RH  009%=      5-min Rain = 0
KLA1 090123Z 01006KT 28/M08 A2968 RMK A01 T02771076  RH  009%=      5-min Rain = 0
KLA1 090124Z 01006KT 28/M08 A2968 RMK A01 T02771077  RH  009%=      5-min Rain = 0
KLA1 090125Z 01006KT 28/M08 A2968 RMK A01 T02761078  RH  009%=      5-min Rain = 0
KLA1 090126Z 01006KT 28/M08 A2968 RMK A01 T02761078  RH  009%=      5-min Rain = 0
KLA1 090127Z 01006KT 28/M08 A2968 RMK A01 T02751077  RH  009%=      5-min Rain = 0
KLA1 090128Z 01006KT 27/M08 A2968 RMK A01 T02741078  RH  009%=      5-min Rain = 0
KLA1 090129Z 01006KT 27/M08 A2968 RMK A01 T02741077  RH  009%=      5-min Rain = 0
KLA1 090130Z 01006KT 27/M08 A2968 RMK A01 T02741077  RH  009%=      5-min Rain = 0
KLA1 090131Z 01006KT 27/M08 A2968 RMK A01 T02731078  RH  009%=      5-min Rain = 0
KLA1 090132Z 01006KT 27/M08 A2968 RMK A01 T02731079  RH  009%=      5-min Rain = 0
KLA1 090133Z 01006KT 27/M08 A2968 RMK A01 T02731078  RH  009%=      5-min Rain = 0
KLA1 090134Z 01006KT 27/M08 A2968 RMK A01 T02731079  RH  009%=      5-min Rain = 0
KLA1 090135Z 01006KT 27/M08 A2968 RMK A01 T02731080  RH  009%=      5-min Rain = 0
KLA1 090136Z 01006KT 27/M08 A2968 RMK A01 T02731081  RH  009%=      5-min Rain = 0
KLA1 090137Z 01006KT 27/M08 A2968 RMK A01 T02731081  RH  009%=      5-min Rain = 0
KLA1 090138Z 01006KT 27/M08 A2968 RMK A01 T02731080  RH  009%=      5-min Rain = 0
KLA1 090139Z 00006KT 27/M08 A2968 RMK A01 T02721080  RH  009%=      5-min Rain = 0
KLA1 090140Z 00005KT 27/M08 A2968 RMK A01 T02711081  RH  009%=      5-min Rain = 0
KLA1 090141Z 35004KT 27/M08 A2968 RMK A01 T02711082  RH  009%=      5-min Rain = 0
KLA1 090142Z 28003KT 27/M08 A2968 RMK A01 T02701081  RH  009%=      5-min Rain = 0
KLA1 090143Z 28004KT 27/M08 A2968 RMK A01 T02691077  RH  010%=      5-min Rain = 0
KLA1 090144Z 28004KT 27/M07 A2968 RMK A01 T02671072  RH  010%=      5-min Rain = 0
KLA1 090145Z 28003KT 27/M07 A2968 RMK A01 T02651069  RH  011%=      5-min Rain = 0
KLA1 090146Z 31001KT 26/M07 A2968 RMK A01 T02641071  RH  010%=      5-min Rain = 0
KLA1 090147Z 31002KT 26/M07 A2968 RMK A01 T02631072  RH  010%=      5-min Rain = 0
KLA1 090148Z 31002KT 26/M07 A2968 RMK A01 T02641071  RH  010%=      5-min Rain = 0
KLA1 090149Z 30002KT 26/M07 A2968 RMK A01 T02641074  RH  010%=      5-min Rain = 0
KLA1 090150Z 32002KT 26/M07 A2968 RMK A01 T02641073  RH  010%=      5-min Rain = 0
KLA1 090151Z 33002KT 26/M07 A2968 RMK A01 T02631073  RH  010%=      5-min Rain = 0
KLA1 090152Z 34002KT 26/M08 A2968 RMK A01 T02631076  RH  010%=      5-min Rain = 0
KLA1 090153Z 35002KT 26/M08 A2968 RMK A01 T02641083  RH  010%=      5-min Rain = 0
KLA1 090154Z 35002KT 27/M08 A2968 RMK A01 T02651081  RH  010%=      5-min Rain = 0
KLA1 090155Z 35001KT 27/M08 A2968 RMK A01 T02651081  RH  010%=      5-min Rain = 0
KLA1 090156Z 33001KT 27/M08 A2968 RMK A01 T02661080  RH  010%=      5-min Rain = 0
KLA1 090157Z 34000KT 27/M08 A2968 RMK A01 T02651081  RH  010%=      5-min Rain = 0
KLA1 090158Z 00000KT 27/M08 A2968 RMK A01 T02651084  RH  009%=      5-min Rain = 0
KLA1 090159Z 30000KT 26/M09 A2969 RMK A01 T02641086  RH  009%=      5-min Rain = 0
KLA1 090200Z 29000KT 26/M09 A2969 RMK A01 T02641085  RH  009%=      5-min Rain = 0
KLA1 090201Z 27000KT 26/M08 A2969 RMK A01 T02631084  RH  010%=      5-min Rain = 0
KLA1 090202Z 00000KT 26/M08 A2969 RMK A01 T02621083  RH  010%=      5-min Rain = 0
KLA1 090203Z 00000KT 26/M08 A2969 RMK A01 T02601081  RH  010%=      5-min Rain = 0
KLA1 090204Z 00000KT 26/M08 A2969 RMK A01 T02591080  RH  010%=      5-min Rain = 0
KLA1 090205Z 00000KT 26/M08 A2969 RMK A01 T02581082  RH  010%=      5-min Rain = 0
KLA1 090206Z 00000KT 26/M08 A2969 RMK A01 T02571079  RH  010%=      5-min Rain = 0
KLA1 090207Z 00000KT 26/M09 A2969 RMK A01 T02561086  RH  010%=      5-min Rain = 0
KLA1 090208Z 00000KT 26/M09 A2969 RMK A01 T02561085  RH  010%=      5-min Rain = 0
KLA1 090209Z 00000KT 26/M09 A2969 RMK A01 T02571087  RH  010%=      5-min Rain = 0
KLA1 090210Z 00000KT 26/M09 A2969 RMK A01 T02591089  RH  009%=      5-min Rain = 0
KLA1 090211Z 00000KT 26/M08 A2969 RMK A01 T02601084  RH  010%=      5-min Rain = 0
KLA1 090212Z 00000KT 26/M08 A2969 RMK A01 T02571077  RH  010%=      5-min Rain = 0
KLA1 090213Z 10000KT 26/M08 A2969 RMK A01 T02551075  RH  011%=      5-min Rain = 0
KLA1 090214Z 10000KT 25/M07 A2969 RMK A01 T02471070  RH  012%=      5-min Rain = 0
KLA1 090215Z 01000KT 24/M07 A2969 RMK A01 T02401073  RH  012%=      5-min Rain = 0
KLA1 090216Z 00001KT 24/M07 A2969 RMK A01 T02361070  RH  012%=      5-min Rain = 0
KLA1 090217Z 36000KT 23/M07 A2969 RMK A01 T02341072  RH  012%=      5-min Rain = 0
KLA1 090218Z 33001KT 23/M07 A2969 RMK A01 T02341073  RH  012%=      5-min Rain = 0
KLA1 090219Z 34001KT 23/M07 A2969 RMK A01 T02341071  RH  012%=      5-min Rain = 0
KLA1 090220Z 34000KT 23/M07 A2969 RMK A01 T02331067  RH  013%=      5-min Rain = 0
KLA1 090221Z 00000KT 23/M07 A2969 RMK A01 T02311065  RH  013%=      5-min Rain = 0
KLA1 090222Z 00000KT 23/M07 A2969 RMK A01 T02301068  RH  013%=      5-min Rain = 0
KLA1 090223Z 35001KT 23/M07 A2969 RMK A01 T02301071  RH  013%=      5-min Rain = 0
KLA1 090224Z 34002KT 23/M07 A2969 RMK A01 T02301074  RH  012%=      5-min Rain = 0
KLA1 090225Z 33001KT 23/M07 A2969 RMK A01 T02321069  RH  013%=      5-min Rain = 0
KLA1 090226Z 00000KT 23/M07 A2969 RMK A01 T02311073  RH  013%=      5-min Rain = 0
KLA1 090227Z 00000KT 23/M07 A2969 RMK A01 T02311069  RH  013%=      5-min Rain = 0
KLA1 090228Z 02000KT 23/M07 A297 RMK A01 T02311074  RH  012%=      5-min Rain = 0
KLA1 090229Z 02001KT 23/M08 A297 RMK A01 T02321075  RH  012%=      5-min Rain = 0
KLA1 090230Z 02002KT 23/M07 A297 RMK A01 T02331074  RH  012%=      5-min Rain = 0
KLA1 090231Z 03002KT 23/M08 A297 RMK A01 T02341075  RH  012%=      5-min Rain = 0
KLA1 090232Z 03002KT 24/M08 A297 RMK A01 T02361075  RH  012%=      5-min Rain = 0
KLA1 090233Z 04002KT 24/M07 A297 RMK A01 T02371073  RH  012%=      5-min Rain = 0
KLA1 090234Z 05002KT 24/M07 A297 RMK A01 T02351066  RH  013%=      5-min Rain = 0
KLA1 090235Z 07002KT 23/M07 A297 RMK A01 T02331074  RH  012%=      5-min Rain = 0
KLA1 090236Z 05001KT 23/M07 A297 RMK A01 T02331073  RH  012%=      5-min Rain = 0
KLA1 090237Z 03001KT 23/M07 A297 RMK A01 T02331071  RH  013%=      5-min Rain = 0
KLA1 090238Z 01001KT 23/M08 A297 RMK A01 T02331077  RH  012%=      5-min Rain = 0
KLA1 090239Z 36001KT 24/M08 A297 RMK A01 T02361080  RH  012%=      5-min Rain = 0
KLA1 090240Z 30003KT 24/M08 A297 RMK A01 T02381076  RH  012%=      5-min Rain = 0
KLA1 090241Z 28006KT 23/M06 A297 RMK A01 T02341061  RH  013%=      5-min Rain = 0
KLA1 090242Z 28004KT 23/M06 A297 RMK A01 T02271059  RH  014%=      5-min Rain = 0
KLA1 090243Z 28003KT 22/M06 A2971 RMK A01 T02231059  RH  015%=      5-min Rain = 0
KLA1 090244Z 29003KT 22/M06 A2971 RMK A01 T02211058  RH  015%=      5-min Rain = 0
KLA1 090245Z 29002KT 22/M06 A2971 RMK A01 T02181058  RH  015%=      5-min Rain = 0
KLA1 090246Z 30000KT 22/M06 A2971 RMK A01 T02171061  RH  015%=      5-min Rain = 0
KLA1 090247Z 00000KT 22/M06 A2971 RMK A01 T02171060  RH  015%=      5-min Rain = 0
KLA1 090248Z 06001KT 22/M06 A2971 RMK A01 T02161063  RH  015%=      5-min Rain = 0
KLA1 090249Z 07002KT 22/M06 A2971 RMK A01 T02151064  RH  015%=      5-min Rain = 0
KLA1 090250Z 07003KT 21/M06 A2971 RMK A01 T02121063  RH  015%=      5-min Rain = 0
KLA1 090251Z 07003KT 21/M06 A2971 RMK A01 T02101063  RH  015%=      5-min Rain = 0
KLA1 090252Z 07003KT 21/M07 A2971 RMK A01 T02101065  RH  015%=      5-min Rain = 0
KLA1 090253Z 06003KT 21/M07 A2971 RMK A01 T02111067  RH  015%=      5-min Rain = 0
KLA1 090254Z 06002KT 22/M07 A2971 RMK A01 T02151070  RH  014%=      5-min Rain = 0
KLA1 090255Z 06002KT 22/M07 A2971 RMK A01 T02211073  RH  013%=      5-min Rain = 0
KLA1 090256Z 06002KT 23/M07 A2971 RMK A01 T02261073  RH  013%=      5-min Rain = 0
KLA1 090257Z 05001KT 23/M08 A297 RMK A01 T02301075  RH  012%=      5-min Rain = 0
KLA1 090258Z 02001KT 23/M08 A297 RMK A01 T02331078  RH  012%=      5-min Rain = 0
KLA1 090259Z 34002KT 24/M08 A2971 RMK A01 T02361076  RH  012%=      5-min Rain = 0
KLA1 090300Z 29005KT 24/M07 A2971 RMK A01 T02371072  RH  012%=      5-min Rain = 0
KLA1 090301Z 30004KT 24/M07 A2971 RMK A01 T02351072  RH  012%=      5-min Rain = 0
KLA1 090302Z 32004KT 23/M07 A2971 RMK A01 T02341069  RH  013%=      5-min Rain = 0
KLA1 090303Z 36000KT 23/M07 A2971 RMK A01 T02311066  RH  013%=      5-min Rain = 0
KLA1 090304Z 00000KT 23/M07 A2971 RMK A01 T02271068  RH  013%=      5-min Rain = 0
KLA1 090305Z 00000KT 22/M07 A2971 RMK A01 T02241071  RH  013%=      5-min Rain = 0
KLA1 090306Z 20000KT 22/M07 A2971 RMK A01 T02231070  RH  013%=      5-min Rain = 0
KLA1 090307Z 14000KT 22/M07 A2971 RMK A01 T02201065  RH  014%=      5-min Rain = 0
KLA1 090308Z 06000KT 22/M07 A2971 RMK A01 T02151068  RH  014%=      5-min Rain = 0
KLA1 090309Z 06001KT 21/M07 A2971 RMK A01 T02101067  RH  015%=      5-min Rain = 0
KLA1 090310Z 08002KT 21/M07 A2971 RMK A01 T02061065  RH  016%=      5-min Rain = 0
KLA1 090311Z 08002KT 20/M07 A2971 RMK A01 T02021065  RH  016%=      5-min Rain = 0
KLA1 090312Z 07003KT 20/M06 A2971 RMK A01 T02001064  RH  016%=      5-min Rain = 0
KLA1 090313Z 07003KT 20/M07 A2971 RMK A01 T01991068  RH  016%=      5-min Rain = 0
KLA1 090314Z 06003KT 20/M07 A2971 RMK A01 T02041071  RH  015%=      5-min Rain = 0
KLA1 090315Z 07003KT 21/M07 A2971 RMK A01 T02091071  RH  015%=      5-min Rain = 0
KLA1 090316Z 07003KT 21/M07 A2971 RMK A01 T02141074  RH  014%=      5-min Rain = 0
KLA1 090317Z 07003KT 22/M07 A2971 RMK A01 T02181074  RH  013%=      5-min Rain = 0
KLA1 090318Z 10002KT 22/M08 A2971 RMK A01 T02211075  RH  013%=      5-min Rain = 0
KLA1 090319Z 12002KT 22/M08 A2971 RMK A01 T02231075  RH  013%=      5-min Rain = 0
KLA1 090320Z 15001KT 22/M07 A2971 RMK A01 T02241072  RH  013%=      5-min Rain = 0
KLA1 090321Z 16001KT 22/M07 A2971 RMK A01 T02231068  RH  014%=      5-min Rain = 0
KLA1 090322Z 15001KT 22/M07 A2971 RMK A01 T02201071  RH  014%=      5-min Rain = 0
KLA1 090323Z 28001KT 22/M07 A2971 RMK A01 T02171070  RH  014%=      5-min Rain = 0
KLA1 090324Z 29005KT 21/M07 A2971 RMK A01 T02141067  RH  015%=      5-min Rain = 0
KLA1 090325Z 27002KT 21/M07 A2971 RMK A01 T02111067  RH  015%=      5-min Rain = 0
KLA1 090326Z 25001KT 21/M07 A2971 RMK A01 T02091067  RH  015%=      5-min Rain = 0
KLA1 090327Z 29001KT 21/M07 A2971 RMK A01 T02081066  RH  015%=      5-min Rain = 0
KLA1 090328Z 29000KT 21/M07 A2971 RMK A01 T02071066  RH  015%=      5-min Rain = 0
KLA1 090329Z 26000KT 21/M07 A2971 RMK A01 T02061065  RH  015%=      5-min Rain = 0
KLA1 090330Z 25001KT 20/M07 A2971 RMK A01 T02041065  RH  016%=      5-min Rain = 0
KLA1 090331Z 26001KT 20/M06 A2971 RMK A01 T02031064  RH  016%=      5-min Rain = 0
KLA1 090332Z 27001KT 20/M06 A2971 RMK A01 T02011063  RH  016%=      5-min Rain = 0
KLA1 090333Z 30000KT 20/M06 A2971 RMK A01 T02001064  RH  016%=      5-min Rain = 0
KLA1 090334Z 31000KT 20/M07 A2971 RMK A01 T01991065  RH  016%=      5-min Rain = 0
KLA1 090335Z 33000KT 20/M07 A2971 RMK A01 T01981065  RH  016%=      5-min Rain = 0
KLA1 090336Z 00000KT 20/M07 A2971 RMK A01 T01971065  RH  016%=      5-min Rain = 0
KLA1 090337Z 00000KT 20/M07 A2971 RMK A01 T01971067  RH  016%=      5-min Rain = 0
KLA1 090338Z 00000KT 20/M07 A2971 RMK A01 T01981066  RH  016%=      5-min Rain = 0
KLA1 090339Z 26000KT 20/M07 A2971 RMK A01 T01991068  RH  016%=      5-min Rain = 0
KLA1 090340Z 00000KT 20/M07 A2971 RMK A01 T02001069  RH  016%=      5-min Rain = 0
KLA1 090341Z 27001KT 20/M07 A2971 RMK A01 T02011068  RH  016%=      5-min Rain = 0
KLA1 090342Z 29002KT 20/M07 A2971 RMK A01 T02011066  RH  016%=      5-min Rain = 0
KLA1 090343Z 29002KT 20/M07 A2971 RMK A01 T02001067  RH  016%=      5-min Rain = 0
KLA1 090344Z 29002KT 20/M07 A2971 RMK A01 T02001070  RH  016%=      5-min Rain = 0
KLA1 090345Z 29002KT 20/M07 A2971 RMK A01 T02011069  RH  016%=      5-min Rain = 0
KLA1 090346Z 29002KT 20/M07 A2971 RMK A01 T02021068  RH  016%=      5-min Rain = 0
KLA1 090347Z 28001KT 20/M06 A2971 RMK A01 T02011062  RH  016%=      5-min Rain = 0
KLA1 090348Z 00000KT 20/M06 A2971 RMK A01 T01971058  RH  017%=      5-min Rain = 0
KLA1 090349Z 00000KT 19/M06 A2971 RMK A01 T01921061  RH  018%=      5-min Rain = 0
KLA1 090350Z 00000KT 19/M06 A2971 RMK A01 T01891059  RH  018%=      5-min Rain = 0
KLA1 090351Z 00000KT 19/M06 A2971 RMK A01 T01871057  RH  019%=      5-min Rain = 0
KLA1 090352Z 10000KT 19/M06 A2971 RMK A01 T01851058  RH  019%=      5-min Rain = 0
KLA1 090353Z 11001KT 18/M06 A2971 RMK A01 T01841060  RH  019%=      5-min Rain = 0
KLA1 090354Z 13002KT 18/M06 A2971 RMK A01 T01841059  RH  019%=      5-min Rain = 0
KLA1 090355Z 13002KT 18/M06 A2971 RMK A01 T01831058  RH  019%=      5-min Rain = 0
KLA1 090356Z 13002KT 18/M06 A2971 RMK A01 T01831060  RH  019%=      5-min Rain = 0
KLA1 090357Z 13003KT 18/M06 A2971 RMK A01 T01831061  RH  019%=      5-min Rain = 0
KLA1 090358Z 13003KT 18/M06 A2971 RMK A01 T01841061  RH  018%=      5-min Rain = 0
KLA1 090359Z 13003KT 18/M06 A2971 RMK A01 T01841061  RH  018%=      5-min Rain = 0
KLA1 090400Z 13003KT 19/M07 A2971 RMK A01 T01851065  RH  018%=      5-min Rain = 0
KLA1 090401Z 13002KT 19/M07 A2971 RMK A01 T01881068  RH  017%=      5-min Rain = 0
KLA1 090402Z 12001KT 19/M07 A2971 RMK A01 T01921070  RH  016%=      5-min Rain = 0
KLA1 090403Z 13000KT 20/M07 A2971 RMK A01 T01961067  RH  016%=      5-min Rain = 0
KLA1 090404Z 00000KT 20/M07 A2971 RMK A01 T01981068  RH  016%=      5-min Rain = 0
KLA1 090405Z 00000KT 20/M07 A2971 RMK A01 T01991070  RH  016%=      5-min Rain = 0
KLA1 090406Z 00000KT 20/M07 A2971 RMK A01 T02001069  RH  016%=      5-min Rain = 0
KLA1 090407Z 00000KT 20/M07 A2971 RMK A01 T02001067  RH  016%=      5-min Rain = 0
KLA1 090408Z 00000KT 20/M07 A2971 RMK A01 T01991069  RH  016%=      5-min Rain = 0
KLA1 090409Z 00000KT 20/M07 A2971 RMK A01 T02001071  RH  015%=      5-min Rain = 0
KLA1 090410Z 00000KT 20/M07 A2971 RMK A01 T02021074  RH  015%=      5-min Rain = 0
KLA1 090411Z 06000KT 20/M06 A2971 RMK A01 T02031063  RH  016%=      5-min Rain = 0
KLA1 090412Z 03002KT 20/M06 A2971 RMK A01 T01971060  RH  017%=      5-min Rain = 0
KLA1 090413Z 02003KT 19/M06 A2971 RMK A01 T01921062  RH  017%=      5-min Rain = 0
KLA1 090414Z 02003KT 19/M06 A297 RMK A01 T01871062  RH  018%=      5-min Rain = 0
KLA1 090415Z 01004KT 19/M06 A297 RMK A01 T01861063  RH  018%=      5-min Rain = 0
KLA1 090416Z 00004KT 19/M07 A297 RMK A01 T01871065  RH  017%=      5-min Rain = 0
KLA1 090417Z 35003KT 19/M07 A297 RMK A01 T01901066  RH  017%=      5-min Rain = 0
KLA1 090418Z 30002KT 19/M06 A297 RMK A01 T01911064  RH  017%=      5-min Rain = 0
KLA1 090419Z 27002KT 19/M06 A297 RMK A01 T01911063  RH  017%=      5-min Rain = 0
KLA1 090420Z 26002KT 19/M06 A297 RMK A01 T01911062  RH  017%=      5-min Rain = 0
KLA1 090421Z 26002KT 19/M06 A297 RMK A01 T01901061  RH  018%=      5-min Rain = 0
KLA1 090422Z 28003KT 19/M06 A297 RMK A01 T01881060  RH  018%=      5-min Rain = 0
KLA1 090423Z 28003KT 19/M06 A297 RMK A01 T01861061  RH  018%=      5-min Rain = 0
KLA1 090424Z 26001KT 19/M06 A297 RMK A01 T01851064  RH  018%=      5-min Rain = 0
KLA1 090425Z 25001KT 19/M06 A297 RMK A01 T01851064  RH  018%=      5-min Rain = 0
KLA1 090426Z 23001KT 19/M07 A297 RMK A01 T01851065  RH  018%=      5-min Rain = 0
KLA1 090427Z 22000KT 19/M07 A297 RMK A01 T01851065  RH  018%=      5-min Rain = 0
KLA1 090428Z 00000KT 18/M06 A297 RMK A01 T01841064  RH  018%=      5-min Rain = 0
KLA1 090429Z 00000KT 18/M06 A297 RMK A01 T01821062  RH  018%=      5-min Rain = 0
KLA1 090430Z 00000KT 18/M06 A297 RMK A01 T01801063  RH  019%=      5-min Rain = 0
KLA1 090431Z 04000KT 18/M06 A297 RMK A01 T01761062  RH  019%=      5-min Rain = 0
KLA1 090432Z 00000KT 17/M06 A297 RMK A01 T01721061  RH  020%=      5-min Rain = 0
KLA1 090433Z 22001KT 17/M06 A297 RMK A01 T01701060  RH  020%=      5-min Rain = 0
KLA1 090434Z 23002KT 17/M06 A297 RMK A01 T01691059  RH  021%=      5-min Rain = 0
KLA1 090435Z 22002KT 17/M06 A297 RMK A01 T01681059  RH  021%=      5-min Rain = 0
KLA1 090436Z 20001KT 17/M06 A297 RMK A01 T01681064  RH  020%=      5-min Rain = 0
KLA1 090437Z 19001KT 17/M06 A297 RMK A01 T01691064  RH  020%=      5-min Rain = 0
KLA1 090438Z 19001KT 17/M06 A2969 RMK A01 T01721064  RH  019%=      5-min Rain = 0
KLA1 090439Z 18002KT 17/M06 A2969 RMK A01 T01741064  RH  019%=      5-min Rain = 0
KLA1 090440Z 17002KT 18/M06 A2969 RMK A01 T01751063  RH  019%=      5-min Rain = 0
KLA1 090441Z 16002KT 18/M07 A2969 RMK A01 T01761066  RH  019%=      5-min Rain = 0
KLA1 090442Z 15002KT 18/M06 A297 RMK A01 T01781064  RH  019%=      5-min Rain = 0
KLA1 090443Z 14002KT 18/M06 A297 RMK A01 T01771060  RH  019%=      5-min Rain = 0
KLA1 090444Z 14002KT 17/M06 A297 RMK A01 T01731057  RH  020%=      5-min Rain = 0
KLA1 090445Z 15001KT 17/M05 A297 RMK A01 T01691054  RH  021%=      5-min Rain = 0
KLA1 090446Z 17002KT 17/M06 A2969 RMK A01 T01671056  RH  021%=      5-min Rain = 0
KLA1 090447Z 17001KT 17/M06 A2969 RMK A01 T01661061  RH  020%=      5-min Rain = 0
KLA1 090448Z 17001KT 17/M06 A2969 RMK A01 T01681064  RH  020%=      5-min Rain = 0
KLA1 090449Z 17001KT 17/M07 A2969 RMK A01 T01701065  RH  019%=      5-min Rain = 0
KLA1 090450Z 17000KT 17/M07 A2969 RMK A01 T01731065  RH  019%=      5-min Rain = 0
KLA1 090451Z 16001KT 18/M06 A2969 RMK A01 T01751063  RH  019%=      5-min Rain = 0
KLA1 090452Z 16001KT 17/M06 A2969 RMK A01 T01721057  RH  020%=      5-min Rain = 0
KLA1 090453Z 15001KT 16/M06 A2969 RMK A01 T01641059  RH  021%=      5-min Rain = 0
KLA1 090454Z 13001KT 16/M06 A2969 RMK A01 T01591057  RH  022%=      5-min Rain = 0
KLA1 090455Z 11000KT 16/M06 A2969 RMK A01 T01561056  RH  023%=      5-min Rain = 0
KLA1 090456Z 00000KT 16/M06 A2969 RMK A01 T01571058  RH  022%=      5-min Rain = 0
KLA1 090457Z 07000KT 16/M06 A2969 RMK A01 T01601060  RH  022%=      5-min Rain = 0
KLA1 090458Z 00000KT 16/M06 A2969 RMK A01 T01631059  RH  021%=      5-min Rain = 0
KLA1 090459Z 00000KT 17/M06 A2969 RMK A01 T01651060  RH  021%=      5-min Rain = 0

Page generated in 0.0651 seconds.